<?xml version="1.0" encoding="UTF-8" standalone="no" ?>
<gpx xmlns="http://www.topografix.com/GPX/1/1" xmlns:xsi="http://www.w3.org/2001/XMLSchema-instance" xsi:schemaLocation="http://www.topografix.com/GPX/1/1 http://www.topografix.com/GPX/1/1/gpx.xsd" version="1.1" creator="VisuGPX - https://www.visugpx.com">
  <metadata>
    <name>Le Courouaou, 1290m, depuis Lesponne.</name>
  </metadata>
  <wpt lat="43.01222" lon="0.15162">
    <ele>725</ele>
    <name><![CDATA[Point de passage 1]]></name>
    <type><![CDATA[GENERIC]]></type>
  </wpt>
  <wpt lat="43.0124" lon="0.15193">
    <ele>721</ele>
    <name><![CDATA[Point de passage 2]]></name>
    <type><![CDATA[GENERIC]]></type>
  </wpt>
  <trk>
    <name><![CDATA[Le Courouaou, 1290m, depuis Lesponne.]]></name>
    <trkseg>
      <trkpt lat="43.01222" lon="0.15162">
        <ele>725</ele>
        <time>2026-01-11T08:22:24.000Z</time>
      </trkpt>
      <trkpt lat="43.01226" lon="0.15163">
        <ele>723</ele>
        <time>2026-01-11T08:22:26.000Z</time>
      </trkpt>
      <trkpt lat="43.01237" lon="0.15171">
        <ele>719</ele>
        <time>2026-01-11T08:23:17.000Z</time>
      </trkpt>
      <trkpt lat="43.01246" lon="0.15185">
        <ele>717</ele>
        <time>2026-01-11T08:23:44.000Z</time>
      </trkpt>
      <trkpt lat="43.01247" lon="0.15203">
        <ele>720</ele>
        <time>2026-01-11T08:23:53.000Z</time>
      </trkpt>
      <trkpt lat="43.01247" lon="0.15221">
        <ele>721</ele>
        <time>2026-01-11T08:24:06.000Z</time>
      </trkpt>
      <trkpt lat="43.01243" lon="0.15236">
        <ele>727</ele>
        <time>2026-01-11T08:24:32.000Z</time>
      </trkpt>
      <trkpt lat="43.01252" lon="0.15247">
        <ele>724</ele>
        <time>2026-01-11T08:24:44.000Z</time>
      </trkpt>
      <trkpt lat="43.01256" lon="0.15264">
        <ele>725</ele>
        <time>2026-01-11T08:24:55.000Z</time>
      </trkpt>
      <trkpt lat="43.0126" lon="0.15284">
        <ele>726</ele>
        <time>2026-01-11T08:25:06.000Z</time>
      </trkpt>
      <trkpt lat="43.01264" lon="0.15303">
        <ele>727</ele>
        <time>2026-01-11T08:25:16.000Z</time>
      </trkpt>
      <trkpt lat="43.01265" lon="0.15322">
        <ele>731</ele>
        <time>2026-01-11T08:25:30.000Z</time>
      </trkpt>
      <trkpt lat="43.01268" lon="0.15341">
        <ele>732</ele>
        <time>2026-01-11T08:25:45.000Z</time>
      </trkpt>
      <trkpt lat="43.01271" lon="0.15361">
        <ele>734</ele>
        <time>2026-01-11T08:26:02.000Z</time>
      </trkpt>
      <trkpt lat="43.01277" lon="0.15379">
        <ele>736</ele>
        <time>2026-01-11T08:26:15.000Z</time>
      </trkpt>
      <trkpt lat="43.01285" lon="0.15395">
        <ele>733</ele>
        <time>2026-01-11T08:26:26.000Z</time>
      </trkpt>
      <trkpt lat="43.01287" lon="0.15413">
        <ele>736</ele>
        <time>2026-01-11T08:26:41.000Z</time>
      </trkpt>
      <trkpt lat="43.01289" lon="0.15434">
        <ele>739</ele>
        <time>2026-01-11T08:26:56.000Z</time>
      </trkpt>
      <trkpt lat="43.01294" lon="0.15453">
        <ele>740</ele>
        <time>2026-01-11T08:27:16.000Z</time>
      </trkpt>
      <trkpt lat="43.01297" lon="0.15472">
        <ele>742</ele>
        <time>2026-01-11T08:27:32.000Z</time>
      </trkpt>
      <trkpt lat="43.01301" lon="0.1549">
        <ele>745</ele>
        <time>2026-01-11T08:27:44.000Z</time>
      </trkpt>
      <trkpt lat="43.01311" lon="0.15502">
        <ele>739</ele>
        <time>2026-01-11T08:27:56.000Z</time>
      </trkpt>
      <trkpt lat="43.01314" lon="0.15522">
        <ele>740</ele>
        <time>2026-01-11T08:28:12.000Z</time>
      </trkpt>
      <trkpt lat="43.01317" lon="0.15543">
        <ele>743</ele>
        <time>2026-01-11T08:28:29.000Z</time>
      </trkpt>
      <trkpt lat="43.01323" lon="0.1556">
        <ele>743</ele>
        <time>2026-01-11T08:28:37.000Z</time>
      </trkpt>
      <trkpt lat="43.01329" lon="0.15578">
        <ele>746</ele>
        <time>2026-01-11T08:28:50.000Z</time>
      </trkpt>
      <trkpt lat="43.01337" lon="0.15593">
        <ele>744</ele>
        <time>2026-01-11T08:29:08.000Z</time>
      </trkpt>
      <trkpt lat="43.01338" lon="0.15612">
        <ele>748</ele>
        <time>2026-01-11T08:29:20.000Z</time>
      </trkpt>
      <trkpt lat="43.01335" lon="0.15631">
        <ele>753</ele>
        <time>2026-01-11T08:29:28.000Z</time>
      </trkpt>
      <trkpt lat="43.01338" lon="0.15649">
        <ele>757</ele>
        <time>2026-01-11T08:29:40.000Z</time>
      </trkpt>
      <trkpt lat="43.01342" lon="0.15668">
        <ele>759</ele>
        <time>2026-01-11T08:30:00.000Z</time>
      </trkpt>
      <trkpt lat="43.01342" lon="0.15686">
        <ele>763</ele>
        <time>2026-01-11T08:30:12.000Z</time>
      </trkpt>
      <trkpt lat="43.01351" lon="0.15701">
        <ele>761</ele>
        <time>2026-01-11T08:30:24.000Z</time>
      </trkpt>
      <trkpt lat="43.01359" lon="0.15716">
        <ele>759</ele>
        <time>2026-01-11T08:30:46.000Z</time>
      </trkpt>
      <trkpt lat="43.01364" lon="0.15733">
        <ele>760</ele>
        <time>2026-01-11T08:30:57.000Z</time>
      </trkpt>
      <trkpt lat="43.01369" lon="0.1575">
        <ele>760</ele>
        <time>2026-01-11T08:31:14.000Z</time>
      </trkpt>
      <trkpt lat="43.01372" lon="0.15769">
        <ele>760</ele>
        <time>2026-01-11T08:31:30.000Z</time>
      </trkpt>
      <trkpt lat="43.01367" lon="0.15788">
        <ele>762</ele>
        <time>2026-01-11T08:31:42.000Z</time>
      </trkpt>
      <trkpt lat="43.01357" lon="0.15806">
        <ele>764</ele>
        <time>2026-01-11T08:31:52.000Z</time>
      </trkpt>
      <trkpt lat="43.01345" lon="0.15817">
        <ele>770</ele>
        <time>2026-01-11T08:32:13.000Z</time>
      </trkpt>
      <trkpt lat="43.01337" lon="0.15831">
        <ele>769</ele>
        <time>2026-01-11T08:32:30.000Z</time>
      </trkpt>
      <trkpt lat="43.01331" lon="0.15848">
        <ele>770</ele>
        <time>2026-01-11T08:32:46.000Z</time>
      </trkpt>
      <trkpt lat="43.01323" lon="0.15862">
        <ele>770</ele>
        <time>2026-01-11T08:33:11.000Z</time>
      </trkpt>
      <trkpt lat="43.01308" lon="0.15869">
        <ele>775</ele>
        <time>2026-01-11T08:33:29.000Z</time>
      </trkpt>
      <trkpt lat="43.01296" lon="0.15869">
        <ele>782</ele>
        <time>2026-01-11T08:33:53.000Z</time>
      </trkpt>
      <trkpt lat="43.013" lon="0.15853">
        <ele>784</ele>
        <time>2026-01-11T08:34:53.000Z</time>
      </trkpt>
      <trkpt lat="43.01306" lon="0.15837">
        <ele>783</ele>
        <time>2026-01-11T08:35:09.000Z</time>
      </trkpt>
      <trkpt lat="43.01313" lon="0.15821">
        <ele>784</ele>
        <time>2026-01-11T08:35:24.000Z</time>
      </trkpt>
      <trkpt lat="43.01319" lon="0.15805">
        <ele>785</ele>
        <time>2026-01-11T08:35:44.000Z</time>
      </trkpt>
      <trkpt lat="43.01318" lon="0.15786">
        <ele>786</ele>
        <time>2026-01-11T08:35:58.000Z</time>
      </trkpt>
      <trkpt lat="43.01312" lon="0.15769">
        <ele>792</ele>
        <time>2026-01-11T08:36:08.000Z</time>
      </trkpt>
      <trkpt lat="43.01306" lon="0.15751">
        <ele>797</ele>
        <time>2026-01-11T08:36:31.000Z</time>
      </trkpt>
      <trkpt lat="43.01301" lon="0.15733">
        <ele>800</ele>
        <time>2026-01-11T08:36:49.000Z</time>
      </trkpt>
      <trkpt lat="43.01295" lon="0.15715">
        <ele>801</ele>
        <time>2026-01-11T08:37:14.000Z</time>
      </trkpt>
      <trkpt lat="43.01287" lon="0.157">
        <ele>803</ele>
        <time>2026-01-11T08:37:24.000Z</time>
      </trkpt>
      <trkpt lat="43.01278" lon="0.15685">
        <ele>805</ele>
        <time>2026-01-11T08:37:37.000Z</time>
      </trkpt>
      <trkpt lat="43.0127" lon="0.15668">
        <ele>807</ele>
        <time>2026-01-11T08:37:54.000Z</time>
      </trkpt>
      <trkpt lat="43.01262" lon="0.15651">
        <ele>809</ele>
        <time>2026-01-11T08:38:11.000Z</time>
      </trkpt>
      <trkpt lat="43.01254" lon="0.15634">
        <ele>813</ele>
        <time>2026-01-11T08:38:25.000Z</time>
      </trkpt>
      <trkpt lat="43.01247" lon="0.1562">
        <ele>814</ele>
        <time>2026-01-11T08:38:39.000Z</time>
      </trkpt>
      <trkpt lat="43.01236" lon="0.15608">
        <ele>818</ele>
        <time>2026-01-11T08:38:58.000Z</time>
      </trkpt>
      <trkpt lat="43.01227" lon="0.15591">
        <ele>820</ele>
        <time>2026-01-11T08:39:09.000Z</time>
      </trkpt>
      <trkpt lat="43.01224" lon="0.15573">
        <ele>819</ele>
        <time>2026-01-11T08:39:18.000Z</time>
      </trkpt>
      <trkpt lat="43.01221" lon="0.15554">
        <ele>819</ele>
        <time>2026-01-11T08:39:33.000Z</time>
      </trkpt>
      <trkpt lat="43.01215" lon="0.15537">
        <ele>820</ele>
        <time>2026-01-11T08:39:49.000Z</time>
      </trkpt>
      <trkpt lat="43.01206" lon="0.15523">
        <ele>825</ele>
        <time>2026-01-11T08:40:03.000Z</time>
      </trkpt>
      <trkpt lat="43.01201" lon="0.15506">
        <ele>825</ele>
        <time>2026-01-11T08:40:22.000Z</time>
      </trkpt>
      <trkpt lat="43.01196" lon="0.15489">
        <ele>825</ele>
        <time>2026-01-11T08:40:37.000Z</time>
      </trkpt>
      <trkpt lat="43.01188" lon="0.15475">
        <ele>825</ele>
        <time>2026-01-11T08:40:51.000Z</time>
      </trkpt>
      <trkpt lat="43.01179" lon="0.15458">
        <ele>825</ele>
        <time>2026-01-11T08:41:07.000Z</time>
      </trkpt>
      <trkpt lat="43.0117" lon="0.15442">
        <ele>824</ele>
        <time>2026-01-11T08:41:29.000Z</time>
      </trkpt>
      <trkpt lat="43.01163" lon="0.15426">
        <ele>824</ele>
        <time>2026-01-11T08:41:44.000Z</time>
      </trkpt>
      <trkpt lat="43.01155" lon="0.1541">
        <ele>822</ele>
        <time>2026-01-11T08:41:59.000Z</time>
      </trkpt>
      <trkpt lat="43.01145" lon="0.15399">
        <ele>824</ele>
        <time>2026-01-11T08:42:14.000Z</time>
      </trkpt>
      <trkpt lat="43.01132" lon="0.15396">
        <ele>828</ele>
        <time>2026-01-11T08:42:33.000Z</time>
      </trkpt>
      <trkpt lat="43.01119" lon="0.15386">
        <ele>830</ele>
        <time>2026-01-11T08:42:55.000Z</time>
      </trkpt>
      <trkpt lat="43.01108" lon="0.15377">
        <ele>834</ele>
        <time>2026-01-11T08:43:19.000Z</time>
      </trkpt>
      <trkpt lat="43.01097" lon="0.15366">
        <ele>833</ele>
        <time>2026-01-11T08:43:31.000Z</time>
      </trkpt>
      <trkpt lat="43.01085" lon="0.1536">
        <ele>834</ele>
        <time>2026-01-11T08:43:44.000Z</time>
      </trkpt>
      <trkpt lat="43.01074" lon="0.15348">
        <ele>836</ele>
        <time>2026-01-11T08:43:57.000Z</time>
      </trkpt>
      <trkpt lat="43.01064" lon="0.15336">
        <ele>834</ele>
        <time>2026-01-11T08:44:17.000Z</time>
      </trkpt>
      <trkpt lat="43.01053" lon="0.15325">
        <ele>835</ele>
        <time>2026-01-11T08:44:32.000Z</time>
      </trkpt>
      <trkpt lat="43.01039" lon="0.15318">
        <ele>839</ele>
        <time>2026-01-11T08:44:46.000Z</time>
      </trkpt>
      <trkpt lat="43.01025" lon="0.15313">
        <ele>841</ele>
        <time>2026-01-11T08:45:15.000Z</time>
      </trkpt>
      <trkpt lat="43.01014" lon="0.15303">
        <ele>841</ele>
        <time>2026-01-11T08:45:42.000Z</time>
      </trkpt>
      <trkpt lat="43.01011" lon="0.15283">
        <ele>839</ele>
        <time>2026-01-11T08:46:29.000Z</time>
      </trkpt>
      <trkpt lat="43.01008" lon="0.15264">
        <ele>841</ele>
        <time>2026-01-11T08:46:47.000Z</time>
      </trkpt>
      <trkpt lat="43.01002" lon="0.15246">
        <ele>846</ele>
        <time>2026-01-11T08:47:11.000Z</time>
      </trkpt>
      <trkpt lat="43.00997" lon="0.15228">
        <ele>848</ele>
        <time>2026-01-11T08:47:42.000Z</time>
      </trkpt>
      <trkpt lat="43.00991" lon="0.15211">
        <ele>853</ele>
        <time>2026-01-11T08:48:09.000Z</time>
      </trkpt>
      <trkpt lat="43.00985" lon="0.15192">
        <ele>856</ele>
        <time>2026-01-11T08:48:32.000Z</time>
      </trkpt>
      <trkpt lat="43.00978" lon="0.15175">
        <ele>859</ele>
        <time>2026-01-11T08:48:58.000Z</time>
      </trkpt>
      <trkpt lat="43.00973" lon="0.15157">
        <ele>862</ele>
        <time>2026-01-11T08:49:10.000Z</time>
      </trkpt>
      <trkpt lat="43.00972" lon="0.1514">
        <ele>859</ele>
        <time>2026-01-11T08:49:37.000Z</time>
      </trkpt>
      <trkpt lat="43.00965" lon="0.15126">
        <ele>863</ele>
        <time>2026-01-11T08:49:57.000Z</time>
      </trkpt>
      <trkpt lat="43.0096" lon="0.15109">
        <ele>867</ele>
        <time>2026-01-11T08:50:31.000Z</time>
      </trkpt>
      <trkpt lat="43.00954" lon="0.15093">
        <ele>868</ele>
        <time>2026-01-11T08:50:45.000Z</time>
      </trkpt>
      <trkpt lat="43.00948" lon="0.15077">
        <ele>869</ele>
        <time>2026-01-11T08:51:15.000Z</time>
      </trkpt>
      <trkpt lat="43.0094" lon="0.15062">
        <ele>871</ele>
        <time>2026-01-11T08:51:27.000Z</time>
      </trkpt>
      <trkpt lat="43.00929" lon="0.15048">
        <ele>873</ele>
        <time>2026-01-11T08:51:52.000Z</time>
      </trkpt>
      <trkpt lat="43.00918" lon="0.15035">
        <ele>879</ele>
        <time>2026-01-11T08:52:27.000Z</time>
      </trkpt>
      <trkpt lat="43.00908" lon="0.15021">
        <ele>881</ele>
        <time>2026-01-11T08:52:40.000Z</time>
      </trkpt>
      <trkpt lat="43.00898" lon="0.15009">
        <ele>883</ele>
        <time>2026-01-11T08:52:58.000Z</time>
      </trkpt>
      <trkpt lat="43.00886" lon="0.14997">
        <ele>885</ele>
        <time>2026-01-11T08:53:25.000Z</time>
      </trkpt>
      <trkpt lat="43.00875" lon="0.14986">
        <ele>891</ele>
        <time>2026-01-11T08:53:44.000Z</time>
      </trkpt>
      <trkpt lat="43.00864" lon="0.14977">
        <ele>894</ele>
        <time>2026-01-11T08:54:10.000Z</time>
      </trkpt>
      <trkpt lat="43.00855" lon="0.14962">
        <ele>892</ele>
        <time>2026-01-11T08:54:24.000Z</time>
      </trkpt>
      <trkpt lat="43.00847" lon="0.14944">
        <ele>892</ele>
        <time>2026-01-11T08:54:37.000Z</time>
      </trkpt>
      <trkpt lat="43.00838" lon="0.14928">
        <ele>893</ele>
        <time>2026-01-11T08:54:57.000Z</time>
      </trkpt>
      <trkpt lat="43.00828" lon="0.14915">
        <ele>895</ele>
        <time>2026-01-11T08:55:16.000Z</time>
      </trkpt>
      <trkpt lat="43.00823" lon="0.14899">
        <ele>895</ele>
        <time>2026-01-11T08:55:27.000Z</time>
      </trkpt>
      <trkpt lat="43.00811" lon="0.14887">
        <ele>896</ele>
        <time>2026-01-11T08:55:42.000Z</time>
      </trkpt>
      <trkpt lat="43.00799" lon="0.14877">
        <ele>895</ele>
        <time>2026-01-11T08:55:55.000Z</time>
      </trkpt>
      <trkpt lat="43.00785" lon="0.14875">
        <ele>904</ele>
        <time>2026-01-11T08:56:34.000Z</time>
      </trkpt>
      <trkpt lat="43.00772" lon="0.14867">
        <ele>906</ele>
        <time>2026-01-11T08:56:51.000Z</time>
      </trkpt>
      <trkpt lat="43.00761" lon="0.14857">
        <ele>905</ele>
        <time>2026-01-11T08:57:07.000Z</time>
      </trkpt>
      <trkpt lat="43.0075" lon="0.14846">
        <ele>907</ele>
        <time>2026-01-11T08:57:23.000Z</time>
      </trkpt>
      <trkpt lat="43.00739" lon="0.14834">
        <ele>906</ele>
        <time>2026-01-11T08:57:36.000Z</time>
      </trkpt>
      <trkpt lat="43.00728" lon="0.14826">
        <ele>905</ele>
        <time>2026-01-11T08:58:17.000Z</time>
      </trkpt>
      <trkpt lat="43.00714" lon="0.14825">
        <ele>910</ele>
        <time>2026-01-11T08:58:48.000Z</time>
      </trkpt>
      <trkpt lat="43.007" lon="0.14819">
        <ele>912</ele>
        <time>2026-01-11T08:59:06.000Z</time>
      </trkpt>
      <trkpt lat="43.00687" lon="0.14814">
        <ele>914</ele>
        <time>2026-01-11T08:59:22.000Z</time>
      </trkpt>
      <trkpt lat="43.00674" lon="0.14809">
        <ele>916</ele>
        <time>2026-01-11T08:59:37.000Z</time>
      </trkpt>
      <trkpt lat="43.00661" lon="0.14812">
        <ele>922</ele>
        <time>2026-01-11T08:59:58.000Z</time>
      </trkpt>
      <trkpt lat="43.00648" lon="0.14808">
        <ele>926</ele>
        <time>2026-01-11T09:00:11.000Z</time>
      </trkpt>
      <trkpt lat="43.00636" lon="0.14799">
        <ele>925</ele>
        <time>2026-01-11T09:00:25.000Z</time>
      </trkpt>
      <trkpt lat="43.00623" lon="0.14792">
        <ele>922</ele>
        <time>2026-01-11T09:01:14.000Z</time>
      </trkpt>
      <trkpt lat="43.0061" lon="0.14792">
        <ele>928</ele>
        <time>2026-01-11T09:02:00.000Z</time>
      </trkpt>
      <trkpt lat="43.00598" lon="0.14795">
        <ele>934</ele>
        <time>2026-01-11T09:02:20.000Z</time>
      </trkpt>
      <trkpt lat="43.00585" lon="0.14788">
        <ele>935</ele>
        <time>2026-01-11T09:02:35.000Z</time>
      </trkpt>
      <trkpt lat="43.0057" lon="0.14785">
        <ele>938</ele>
        <time>2026-01-11T09:03:18.000Z</time>
      </trkpt>
      <trkpt lat="43.00557" lon="0.14783">
        <ele>942</ele>
        <time>2026-01-11T09:03:34.000Z</time>
      </trkpt>
      <trkpt lat="43.00545" lon="0.14774">
        <ele>943</ele>
        <time>2026-01-11T09:03:43.000Z</time>
      </trkpt>
      <trkpt lat="43.00533" lon="0.14766">
        <ele>946</ele>
        <time>2026-01-11T09:03:54.000Z</time>
      </trkpt>
      <trkpt lat="43.00523" lon="0.14752">
        <ele>944</ele>
        <time>2026-01-11T09:04:06.000Z</time>
      </trkpt>
      <trkpt lat="43.00516" lon="0.14735">
        <ele>942</ele>
        <time>2026-01-11T09:04:29.000Z</time>
      </trkpt>
      <trkpt lat="43.00509" lon="0.14717">
        <ele>939</ele>
        <time>2026-01-11T09:04:45.000Z</time>
      </trkpt>
      <trkpt lat="43.00496" lon="0.14708">
        <ele>940</ele>
        <time>2026-01-11T09:05:06.000Z</time>
      </trkpt>
      <trkpt lat="43.00483" lon="0.14706">
        <ele>943</ele>
        <time>2026-01-11T09:05:26.000Z</time>
      </trkpt>
      <trkpt lat="43.00468" lon="0.14695">
        <ele>945</ele>
        <time>2026-01-11T09:05:46.000Z</time>
      </trkpt>
      <trkpt lat="43.00456" lon="0.14685">
        <ele>945</ele>
        <time>2026-01-11T09:06:11.000Z</time>
      </trkpt>
      <trkpt lat="43.00444" lon="0.14677">
        <ele>945</ele>
        <time>2026-01-11T09:06:24.000Z</time>
      </trkpt>
      <trkpt lat="43.00432" lon="0.14673">
        <ele>947</ele>
        <time>2026-01-11T09:06:43.000Z</time>
      </trkpt>
      <trkpt lat="43.00419" lon="0.14678">
        <ele>950</ele>
        <time>2026-01-11T09:06:59.000Z</time>
      </trkpt>
      <trkpt lat="43.00406" lon="0.14681">
        <ele>951</ele>
        <time>2026-01-11T09:07:11.000Z</time>
      </trkpt>
      <trkpt lat="43.00394" lon="0.14673">
        <ele>950</ele>
        <time>2026-01-11T09:07:26.000Z</time>
      </trkpt>
      <trkpt lat="43.00384" lon="0.14667">
        <ele>949</ele>
        <time>2026-01-11T09:07:55.000Z</time>
      </trkpt>
      <trkpt lat="43.00379" lon="0.14682">
        <ele>952</ele>
        <time>2026-01-11T09:08:04.000Z</time>
      </trkpt>
      <trkpt lat="43.00369" lon="0.14696">
        <ele>957</ele>
        <time>2026-01-11T09:08:18.000Z</time>
      </trkpt>
      <trkpt lat="43.00359" lon="0.1471">
        <ele>959</ele>
        <time>2026-01-11T09:09:06.000Z</time>
      </trkpt>
      <trkpt lat="43.00342" lon="0.14726">
        <ele>964</ele>
        <time>2026-01-11T09:09:41.000Z</time>
      </trkpt>
      <trkpt lat="43.00331" lon="0.14741">
        <ele>966</ele>
        <time>2026-01-11T09:09:49.000Z</time>
      </trkpt>
      <trkpt lat="43.0032" lon="0.14753">
        <ele>968</ele>
        <time>2026-01-11T09:10:04.000Z</time>
      </trkpt>
      <trkpt lat="43.00308" lon="0.14763">
        <ele>966</ele>
        <time>2026-01-11T09:10:20.000Z</time>
      </trkpt>
      <trkpt lat="43.00296" lon="0.14773">
        <ele>967</ele>
        <time>2026-01-11T09:10:35.000Z</time>
      </trkpt>
      <trkpt lat="43.00285" lon="0.14786">
        <ele>969</ele>
        <time>2026-01-11T09:10:52.000Z</time>
      </trkpt>
      <trkpt lat="43.00275" lon="0.14798">
        <ele>969</ele>
        <time>2026-01-11T09:11:19.000Z</time>
      </trkpt>
      <trkpt lat="43.00268" lon="0.14814">
        <ele>972</ele>
        <time>2026-01-11T09:11:37.000Z</time>
      </trkpt>
      <trkpt lat="43.00259" lon="0.14828">
        <ele>973</ele>
        <time>2026-01-11T09:11:52.000Z</time>
      </trkpt>
      <trkpt lat="43.00247" lon="0.14838">
        <ele>974</ele>
        <time>2026-01-11T09:12:05.000Z</time>
      </trkpt>
      <trkpt lat="43.00238" lon="0.14852">
        <ele>973</ele>
        <time>2026-01-11T09:12:17.000Z</time>
      </trkpt>
      <trkpt lat="43.00234" lon="0.1487">
        <ele>977</ele>
        <time>2026-01-11T09:12:46.000Z</time>
      </trkpt>
      <trkpt lat="43.00229" lon="0.14888">
        <ele>980</ele>
        <time>2026-01-11T09:13:01.000Z</time>
      </trkpt>
      <trkpt lat="43.00218" lon="0.14899">
        <ele>980</ele>
        <time>2026-01-11T09:13:14.000Z</time>
      </trkpt>
      <trkpt lat="43.00209" lon="0.14911">
        <ele>979</ele>
        <time>2026-01-11T09:13:27.000Z</time>
      </trkpt>
      <trkpt lat="43.00201" lon="0.14926">
        <ele>981</ele>
        <time>2026-01-11T09:13:44.000Z</time>
      </trkpt>
      <trkpt lat="43.00192" lon="0.14941">
        <ele>981</ele>
        <time>2026-01-11T09:14:00.000Z</time>
      </trkpt>
      <trkpt lat="43.00184" lon="0.14954">
        <ele>983</ele>
        <time>2026-01-11T09:14:13.000Z</time>
      </trkpt>
      <trkpt lat="43.00175" lon="0.1497">
        <ele>985</ele>
        <time>2026-01-11T09:14:30.000Z</time>
      </trkpt>
      <trkpt lat="43.00167" lon="0.14985">
        <ele>986</ele>
        <time>2026-01-11T09:14:44.000Z</time>
      </trkpt>
      <trkpt lat="43.0016" lon="0.15003">
        <ele>989</ele>
        <time>2026-01-11T09:15:01.000Z</time>
      </trkpt>
      <trkpt lat="43.00152" lon="0.15016">
        <ele>991</ele>
        <time>2026-01-11T09:15:42.000Z</time>
      </trkpt>
      <trkpt lat="43.00146" lon="0.15006">
        <ele>990</ele>
        <time>2026-01-11T09:16:28.000Z</time>
      </trkpt>
      <trkpt lat="43.00152" lon="0.14999">
        <ele>988</ele>
        <time>2026-01-11T09:17:25.000Z</time>
      </trkpt>
      <trkpt lat="43.00142" lon="0.15005">
        <ele>991</ele>
        <time>2026-01-11T09:18:16.000Z</time>
      </trkpt>
      <trkpt lat="43.00148" lon="0.15011">
        <ele>990</ele>
        <time>2026-01-11T09:18:30.000Z</time>
      </trkpt>
      <trkpt lat="43.00146" lon="0.14999">
        <ele>989</ele>
        <time>2026-01-11T09:19:07.000Z</time>
      </trkpt>
      <trkpt lat="43.0015" lon="0.15013">
        <ele>990</ele>
        <time>2026-01-11T09:19:40.000Z</time>
      </trkpt>
      <trkpt lat="43.0015" lon="0.1503">
        <ele>994</ele>
        <time>2026-01-11T09:20:40.000Z</time>
      </trkpt>
      <trkpt lat="43.00158" lon="0.15026">
        <ele>993</ele>
        <time>2026-01-11T09:21:55.000Z</time>
      </trkpt>
      <trkpt lat="43.00148" lon="0.15024">
        <ele>993</ele>
        <time>2026-01-11T09:22:49.000Z</time>
      </trkpt>
      <trkpt lat="43.0014" lon="0.15031">
        <ele>996</ele>
        <time>2026-01-11T09:25:16.000Z</time>
      </trkpt>
      <trkpt lat="43.00143" lon="0.15018">
        <ele>993</ele>
        <time>2026-01-11T09:25:34.000Z</time>
      </trkpt>
      <trkpt lat="43.00135" lon="0.15002">
        <ele>993</ele>
        <time>2026-01-11T09:25:55.000Z</time>
      </trkpt>
      <trkpt lat="43.00128" lon="0.14981">
        <ele>993</ele>
        <time>2026-01-11T09:26:16.000Z</time>
      </trkpt>
      <trkpt lat="43.00121" lon="0.14963">
        <ele>995</ele>
        <time>2026-01-11T09:26:56.000Z</time>
      </trkpt>
      <trkpt lat="43.00116" lon="0.14945">
        <ele>996</ele>
        <time>2026-01-11T09:27:17.000Z</time>
      </trkpt>
      <trkpt lat="43.00112" lon="0.14927">
        <ele>997</ele>
        <time>2026-01-11T09:27:37.000Z</time>
      </trkpt>
      <trkpt lat="43.00105" lon="0.14911">
        <ele>1000</ele>
        <time>2026-01-11T09:28:55.000Z</time>
      </trkpt>
      <trkpt lat="43.00095" lon="0.14897">
        <ele>1004</ele>
        <time>2026-01-11T09:29:34.000Z</time>
      </trkpt>
      <trkpt lat="43.0009" lon="0.14879">
        <ele>1004</ele>
        <time>2026-01-11T09:29:54.000Z</time>
      </trkpt>
      <trkpt lat="43.00083" lon="0.14863">
        <ele>1006</ele>
        <time>2026-01-11T09:30:08.000Z</time>
      </trkpt>
      <trkpt lat="43.00073" lon="0.14853">
        <ele>1010</ele>
        <time>2026-01-11T09:30:22.000Z</time>
      </trkpt>
      <trkpt lat="43.00067" lon="0.14833">
        <ele>1009</ele>
        <time>2026-01-11T09:30:39.000Z</time>
      </trkpt>
      <trkpt lat="43.00059" lon="0.14815">
        <ele>1010</ele>
        <time>2026-01-11T09:30:52.000Z</time>
      </trkpt>
      <trkpt lat="43.00052" lon="0.14799">
        <ele>1009</ele>
        <time>2026-01-11T09:31:03.000Z</time>
      </trkpt>
      <trkpt lat="43.00042" lon="0.14786">
        <ele>1010</ele>
        <time>2026-01-11T09:32:19.000Z</time>
      </trkpt>
      <trkpt lat="43.0003" lon="0.14777">
        <ele>1012</ele>
        <time>2026-01-11T09:32:45.000Z</time>
      </trkpt>
      <trkpt lat="43.00019" lon="0.14766">
        <ele>1013</ele>
        <time>2026-01-11T09:33:02.000Z</time>
      </trkpt>
      <trkpt lat="43.00004" lon="0.14765">
        <ele>1015</ele>
        <time>2026-01-11T09:34:00.000Z</time>
      </trkpt>
      <trkpt lat="42.99991" lon="0.14759">
        <ele>1016</ele>
        <time>2026-01-11T09:34:14.000Z</time>
      </trkpt>
      <trkpt lat="42.99978" lon="0.14763">
        <ele>1019</ele>
        <time>2026-01-11T09:34:31.000Z</time>
      </trkpt>
      <trkpt lat="42.99964" lon="0.14761">
        <ele>1020</ele>
        <time>2026-01-11T09:34:43.000Z</time>
      </trkpt>
      <trkpt lat="42.99949" lon="0.14757">
        <ele>1019</ele>
        <time>2026-01-11T09:34:52.000Z</time>
      </trkpt>
      <trkpt lat="42.99936" lon="0.14761">
        <ele>1019</ele>
        <time>2026-01-11T09:35:03.000Z</time>
      </trkpt>
      <trkpt lat="42.99926" lon="0.14773">
        <ele>1025</ele>
        <time>2026-01-11T09:35:17.000Z</time>
      </trkpt>
      <trkpt lat="42.99916" lon="0.14785">
        <ele>1029</ele>
        <time>2026-01-11T09:35:37.000Z</time>
      </trkpt>
      <trkpt lat="42.99903" lon="0.14787">
        <ele>1028</ele>
        <time>2026-01-11T09:35:48.000Z</time>
      </trkpt>
      <trkpt lat="42.99889" lon="0.14789">
        <ele>1028</ele>
        <time>2026-01-11T09:36:24.000Z</time>
      </trkpt>
      <trkpt lat="42.99876" lon="0.14786">
        <ele>1026</ele>
        <time>2026-01-11T09:36:41.000Z</time>
      </trkpt>
      <trkpt lat="42.99862" lon="0.14789">
        <ele>1027</ele>
        <time>2026-01-11T09:37:02.000Z</time>
      </trkpt>
      <trkpt lat="42.9985" lon="0.14795">
        <ele>1030</ele>
        <time>2026-01-11T09:37:14.000Z</time>
      </trkpt>
      <trkpt lat="42.99836" lon="0.14796">
        <ele>1029</ele>
        <time>2026-01-11T09:37:25.000Z</time>
      </trkpt>
      <trkpt lat="42.99822" lon="0.14789">
        <ele>1027</ele>
        <time>2026-01-11T09:37:39.000Z</time>
      </trkpt>
      <trkpt lat="42.99807" lon="0.14791">
        <ele>1028</ele>
        <time>2026-01-11T09:38:06.000Z</time>
      </trkpt>
      <trkpt lat="42.99795" lon="0.14796">
        <ele>1028</ele>
        <time>2026-01-11T09:38:20.000Z</time>
      </trkpt>
      <trkpt lat="42.99798" lon="0.14811">
        <ele>1028</ele>
        <time>2026-01-11T09:39:20.000Z</time>
      </trkpt>
      <trkpt lat="42.99809" lon="0.14823">
        <ele>1032</ele>
        <time>2026-01-11T09:39:58.000Z</time>
      </trkpt>
      <trkpt lat="42.99822" lon="0.14826">
        <ele>1036</ele>
        <time>2026-01-11T09:40:14.000Z</time>
      </trkpt>
      <trkpt lat="42.99835" lon="0.14822">
        <ele>1037</ele>
        <time>2026-01-11T09:40:33.000Z</time>
      </trkpt>
      <trkpt lat="42.99848" lon="0.1483">
        <ele>1041</ele>
        <time>2026-01-11T09:40:48.000Z</time>
      </trkpt>
      <trkpt lat="42.99859" lon="0.14836">
        <ele>1046</ele>
        <time>2026-01-11T09:41:03.000Z</time>
      </trkpt>
      <trkpt lat="42.99868" lon="0.14828">
        <ele>1043</ele>
        <time>2026-01-11T09:41:43.000Z</time>
      </trkpt>
      <trkpt lat="42.99879" lon="0.14834">
        <ele>1046</ele>
        <time>2026-01-11T09:42:05.000Z</time>
      </trkpt>
      <trkpt lat="42.99893" lon="0.14833">
        <ele>1046</ele>
        <time>2026-01-11T09:42:28.000Z</time>
      </trkpt>
      <trkpt lat="42.99906" lon="0.1484">
        <ele>1049</ele>
        <time>2026-01-11T09:42:42.000Z</time>
      </trkpt>
      <trkpt lat="42.99921" lon="0.14844">
        <ele>1051</ele>
        <time>2026-01-11T09:42:57.000Z</time>
      </trkpt>
      <trkpt lat="42.99933" lon="0.14852">
        <ele>1054</ele>
        <time>2026-01-11T09:43:41.000Z</time>
      </trkpt>
      <trkpt lat="42.99947" lon="0.14859">
        <ele>1055</ele>
        <time>2026-01-11T09:43:57.000Z</time>
      </trkpt>
      <trkpt lat="42.99959" lon="0.14868">
        <ele>1057</ele>
        <time>2026-01-11T09:44:15.000Z</time>
      </trkpt>
      <trkpt lat="42.99969" lon="0.14878">
        <ele>1057</ele>
        <time>2026-01-11T09:44:28.000Z</time>
      </trkpt>
      <trkpt lat="42.99972" lon="0.14896">
        <ele>1060</ele>
        <time>2026-01-11T09:44:42.000Z</time>
      </trkpt>
      <trkpt lat="42.99975" lon="0.14913">
        <ele>1063</ele>
        <time>2026-01-11T09:44:56.000Z</time>
      </trkpt>
      <trkpt lat="42.99984" lon="0.14925">
        <ele>1063</ele>
        <time>2026-01-11T09:45:15.000Z</time>
      </trkpt>
      <trkpt lat="42.99995" lon="0.14936">
        <ele>1063</ele>
        <time>2026-01-11T09:45:33.000Z</time>
      </trkpt>
      <trkpt lat="43.00001" lon="0.14954">
        <ele>1064</ele>
        <time>2026-01-11T09:46:50.000Z</time>
      </trkpt>
      <trkpt lat="43.00006" lon="0.14972">
        <ele>1067</ele>
        <time>2026-01-11T09:47:15.000Z</time>
      </trkpt>
      <trkpt lat="43.00013" lon="0.1499">
        <ele>1067</ele>
        <time>2026-01-11T09:47:37.000Z</time>
      </trkpt>
      <trkpt lat="43.00012" lon="0.1501">
        <ele>1072</ele>
        <time>2026-01-11T09:47:57.000Z</time>
      </trkpt>
      <trkpt lat="43.00011" lon="0.1503">
        <ele>1075</ele>
        <time>2026-01-11T09:48:18.000Z</time>
      </trkpt>
      <trkpt lat="43.00015" lon="0.15044">
        <ele>1076</ele>
        <time>2026-01-11T09:48:42.000Z</time>
      </trkpt>
      <trkpt lat="43.00017" lon="0.15036">
        <ele>1074</ele>
        <time>2026-01-11T09:49:31.000Z</time>
      </trkpt>
      <trkpt lat="43.00015" lon="0.15051">
        <ele>1077</ele>
        <time>2026-01-11T09:50:03.000Z</time>
      </trkpt>
      <trkpt lat="43.00017" lon="0.15068">
        <ele>1078</ele>
        <time>2026-01-11T09:50:53.000Z</time>
      </trkpt>
      <trkpt lat="43.00025" lon="0.15078">
        <ele>1074</ele>
        <time>2026-01-11T09:51:43.000Z</time>
      </trkpt>
      <trkpt lat="43.0002" lon="0.15092">
        <ele>1079</ele>
        <time>2026-01-11T09:51:55.000Z</time>
      </trkpt>
      <trkpt lat="43.00019" lon="0.15111">
        <ele>1080</ele>
        <time>2026-01-11T09:52:15.000Z</time>
      </trkpt>
      <trkpt lat="43.00021" lon="0.15132">
        <ele>1081</ele>
        <time>2026-01-11T09:52:44.000Z</time>
      </trkpt>
      <trkpt lat="43.00024" lon="0.1515">
        <ele>1080</ele>
        <time>2026-01-11T09:52:58.000Z</time>
      </trkpt>
      <trkpt lat="43.00034" lon="0.15163">
        <ele>1076</ele>
        <time>2026-01-11T09:53:14.000Z</time>
      </trkpt>
      <trkpt lat="43.00036" lon="0.15187">
        <ele>1078</ele>
        <time>2026-01-11T09:53:46.000Z</time>
      </trkpt>
      <trkpt lat="43.00043" lon="0.15206">
        <ele>1078</ele>
        <time>2026-01-11T09:54:09.000Z</time>
      </trkpt>
      <trkpt lat="43.00044" lon="0.15222">
        <ele>1080</ele>
        <time>2026-01-11T09:54:25.000Z</time>
      </trkpt>
      <trkpt lat="43.00037" lon="0.15229">
        <ele>1086</ele>
        <time>2026-01-11T09:54:44.000Z</time>
      </trkpt>
      <trkpt lat="43.0004" lon="0.15217">
        <ele>1082</ele>
        <time>2026-01-11T09:55:07.000Z</time>
      </trkpt>
      <trkpt lat="43.0004" lon="0.15202">
        <ele>1078</ele>
        <time>2026-01-11T09:55:19.000Z</time>
      </trkpt>
      <trkpt lat="43.00043" lon="0.15214">
        <ele>1080</ele>
        <time>2026-01-11T09:56:20.000Z</time>
      </trkpt>
      <trkpt lat="43.00041" lon="0.15232">
        <ele>1084</ele>
        <time>2026-01-11T09:57:12.000Z</time>
      </trkpt>
      <trkpt lat="43.0004" lon="0.15251">
        <ele>1088</ele>
        <time>2026-01-11T09:57:23.000Z</time>
      </trkpt>
      <trkpt lat="43.00032" lon="0.15265">
        <ele>1094</ele>
        <time>2026-01-11T09:58:10.000Z</time>
      </trkpt>
      <trkpt lat="43.00036" lon="0.1528">
        <ele>1094</ele>
        <time>2026-01-11T09:58:46.000Z</time>
      </trkpt>
      <trkpt lat="43.00029" lon="0.15295">
        <ele>1101</ele>
        <time>2026-01-11T09:59:04.000Z</time>
      </trkpt>
      <trkpt lat="43.00039" lon="0.15307">
        <ele>1096</ele>
        <time>2026-01-11T09:59:13.000Z</time>
      </trkpt>
      <trkpt lat="43.00042" lon="0.15324">
        <ele>1094</ele>
        <time>2026-01-11T09:59:31.000Z</time>
      </trkpt>
      <trkpt lat="43.0004" lon="0.15343">
        <ele>1098</ele>
        <time>2026-01-11T09:59:49.000Z</time>
      </trkpt>
      <trkpt lat="43.00048" lon="0.15355">
        <ele>1093</ele>
        <time>2026-01-11T10:00:01.000Z</time>
      </trkpt>
      <trkpt lat="43.00048" lon="0.15373">
        <ele>1094</ele>
        <time>2026-01-11T10:00:22.000Z</time>
      </trkpt>
      <trkpt lat="43.00042" lon="0.15389">
        <ele>1095</ele>
        <time>2026-01-11T10:00:31.000Z</time>
      </trkpt>
      <trkpt lat="43.00034" lon="0.154">
        <ele>1097</ele>
        <time>2026-01-11T10:00:49.000Z</time>
      </trkpt>
      <trkpt lat="43.00041" lon="0.15398">
        <ele>1095</ele>
        <time>2026-01-11T10:01:04.000Z</time>
      </trkpt>
      <trkpt lat="43.00034" lon="0.1541">
        <ele>1096</ele>
        <time>2026-01-11T10:01:13.000Z</time>
      </trkpt>
      <trkpt lat="43.00024" lon="0.15423">
        <ele>1101</ele>
        <time>2026-01-11T10:02:01.000Z</time>
      </trkpt>
      <trkpt lat="43.00018" lon="0.15439">
        <ele>1103</ele>
        <time>2026-01-11T10:02:30.000Z</time>
      </trkpt>
      <trkpt lat="43.0001" lon="0.15453">
        <ele>1103</ele>
        <time>2026-01-11T10:02:51.000Z</time>
      </trkpt>
      <trkpt lat="42.99999" lon="0.15463">
        <ele>1108</ele>
        <time>2026-01-11T10:03:06.000Z</time>
      </trkpt>
      <trkpt lat="42.99988" lon="0.15474">
        <ele>1109</ele>
        <time>2026-01-11T10:04:01.000Z</time>
      </trkpt>
      <trkpt lat="42.99979" lon="0.15493">
        <ele>1110</ele>
        <time>2026-01-11T10:04:15.000Z</time>
      </trkpt>
      <trkpt lat="42.99966" lon="0.15504">
        <ele>1112</ele>
        <time>2026-01-11T10:04:34.000Z</time>
      </trkpt>
      <trkpt lat="42.99955" lon="0.15515">
        <ele>1113</ele>
        <time>2026-01-11T10:04:54.000Z</time>
      </trkpt>
      <trkpt lat="42.99948" lon="0.1553">
        <ele>1114</ele>
        <time>2026-01-11T10:05:09.000Z</time>
      </trkpt>
      <trkpt lat="42.9994" lon="0.15544">
        <ele>1117</ele>
        <time>2026-01-11T10:06:37.000Z</time>
      </trkpt>
      <trkpt lat="42.99951" lon="0.15551">
        <ele>1115</ele>
        <time>2026-01-11T10:07:46.000Z</time>
      </trkpt>
      <trkpt lat="42.99965" lon="0.15554">
        <ele>1113</ele>
        <time>2026-01-11T10:08:06.000Z</time>
      </trkpt>
      <trkpt lat="42.9998" lon="0.15561">
        <ele>1115</ele>
        <time>2026-01-11T10:08:25.000Z</time>
      </trkpt>
      <trkpt lat="42.99994" lon="0.15569">
        <ele>1120</ele>
        <time>2026-01-11T10:09:05.000Z</time>
      </trkpt>
      <trkpt lat="43.00008" lon="0.15571">
        <ele>1123</ele>
        <time>2026-01-11T10:09:28.000Z</time>
      </trkpt>
      <trkpt lat="43.00022" lon="0.15568">
        <ele>1122</ele>
        <time>2026-01-11T10:09:51.000Z</time>
      </trkpt>
      <trkpt lat="43.00035" lon="0.15566">
        <ele>1125</ele>
        <time>2026-01-11T10:10:04.000Z</time>
      </trkpt>
      <trkpt lat="43.00047" lon="0.15572">
        <ele>1128</ele>
        <time>2026-01-11T10:10:19.000Z</time>
      </trkpt>
      <trkpt lat="43.00062" lon="0.15569">
        <ele>1129</ele>
        <time>2026-01-11T10:10:39.000Z</time>
      </trkpt>
      <trkpt lat="43.00075" lon="0.15563">
        <ele>1126</ele>
        <time>2026-01-11T10:12:16.000Z</time>
      </trkpt>
      <trkpt lat="43.00088" lon="0.15567">
        <ele>1130</ele>
        <time>2026-01-11T10:12:26.000Z</time>
      </trkpt>
      <trkpt lat="43.00103" lon="0.1557">
        <ele>1134</ele>
        <time>2026-01-11T10:12:53.000Z</time>
      </trkpt>
      <trkpt lat="43.00117" lon="0.15567">
        <ele>1135</ele>
        <time>2026-01-11T10:13:19.000Z</time>
      </trkpt>
      <trkpt lat="43.00132" lon="0.15566">
        <ele>1136</ele>
        <time>2026-01-11T10:13:34.000Z</time>
      </trkpt>
      <trkpt lat="43.00145" lon="0.15564">
        <ele>1137</ele>
        <time>2026-01-11T10:13:46.000Z</time>
      </trkpt>
      <trkpt lat="43.00158" lon="0.15563">
        <ele>1138</ele>
        <time>2026-01-11T10:14:03.000Z</time>
      </trkpt>
      <trkpt lat="43.00171" lon="0.15557">
        <ele>1137</ele>
        <time>2026-01-11T10:14:20.000Z</time>
      </trkpt>
      <trkpt lat="43.00183" lon="0.15549">
        <ele>1137</ele>
        <time>2026-01-11T10:14:54.000Z</time>
      </trkpt>
      <trkpt lat="43.00196" lon="0.15551">
        <ele>1137</ele>
        <time>2026-01-11T10:15:07.000Z</time>
      </trkpt>
      <trkpt lat="43.00209" lon="0.15558">
        <ele>1138</ele>
        <time>2026-01-11T10:15:24.000Z</time>
      </trkpt>
      <trkpt lat="43.00221" lon="0.15569">
        <ele>1138</ele>
        <time>2026-01-11T10:16:08.000Z</time>
      </trkpt>
      <trkpt lat="43.0023" lon="0.15585">
        <ele>1137</ele>
        <time>2026-01-11T10:16:24.000Z</time>
      </trkpt>
      <trkpt lat="43.00234" lon="0.15601">
        <ele>1138</ele>
        <time>2026-01-11T10:16:46.000Z</time>
      </trkpt>
      <trkpt lat="43.0023" lon="0.15618">
        <ele>1140</ele>
        <time>2026-01-11T10:16:57.000Z</time>
      </trkpt>
      <trkpt lat="43.0023" lon="0.15636">
        <ele>1140</ele>
        <time>2026-01-11T10:17:15.000Z</time>
      </trkpt>
      <trkpt lat="43.00236" lon="0.15652">
        <ele>1140</ele>
        <time>2026-01-11T10:17:32.000Z</time>
      </trkpt>
      <trkpt lat="43.00241" lon="0.15669">
        <ele>1139</ele>
        <time>2026-01-11T10:19:03.000Z</time>
      </trkpt>
      <trkpt lat="43.00238" lon="0.15687">
        <ele>1142</ele>
        <time>2026-01-11T10:19:14.000Z</time>
      </trkpt>
      <trkpt lat="43.00237" lon="0.15708">
        <ele>1143</ele>
        <time>2026-01-11T10:19:34.000Z</time>
      </trkpt>
      <trkpt lat="43.00235" lon="0.15729">
        <ele>1143</ele>
        <time>2026-01-11T10:19:52.000Z</time>
      </trkpt>
      <trkpt lat="43.00232" lon="0.15749">
        <ele>1144</ele>
        <time>2026-01-11T10:20:10.000Z</time>
      </trkpt>
      <trkpt lat="43.00231" lon="0.15768">
        <ele>1142</ele>
        <time>2026-01-11T10:20:31.000Z</time>
      </trkpt>
      <trkpt lat="43.00228" lon="0.15787">
        <ele>1142</ele>
        <time>2026-01-11T10:20:54.000Z</time>
      </trkpt>
      <trkpt lat="43.00223" lon="0.15802">
        <ele>1142</ele>
        <time>2026-01-11T10:21:37.000Z</time>
      </trkpt>
      <trkpt lat="43.0021" lon="0.15807">
        <ele>1144</ele>
        <time>2026-01-11T10:23:27.000Z</time>
      </trkpt>
      <trkpt lat="43.00196" lon="0.15807">
        <ele>1149</ele>
        <time>2026-01-11T10:23:45.000Z</time>
      </trkpt>
      <trkpt lat="43.00181" lon="0.1581">
        <ele>1152</ele>
        <time>2026-01-11T10:24:01.000Z</time>
      </trkpt>
      <trkpt lat="43.00168" lon="0.15813">
        <ele>1154</ele>
        <time>2026-01-11T10:24:43.000Z</time>
      </trkpt>
      <trkpt lat="43.00154" lon="0.15813">
        <ele>1157</ele>
        <time>2026-01-11T10:24:57.000Z</time>
      </trkpt>
      <trkpt lat="43.0014" lon="0.15815">
        <ele>1158</ele>
        <time>2026-01-11T10:25:10.000Z</time>
      </trkpt>
      <trkpt lat="43.00128" lon="0.15823">
        <ele>1159</ele>
        <time>2026-01-11T10:25:29.000Z</time>
      </trkpt>
      <trkpt lat="43.00116" lon="0.15831">
        <ele>1159</ele>
        <time>2026-01-11T10:25:45.000Z</time>
      </trkpt>
      <trkpt lat="43.00104" lon="0.15839">
        <ele>1161</ele>
        <time>2026-01-11T10:26:08.000Z</time>
      </trkpt>
      <trkpt lat="43.0009" lon="0.15843">
        <ele>1163</ele>
        <time>2026-01-11T10:27:11.000Z</time>
      </trkpt>
      <trkpt lat="43.00075" lon="0.15843">
        <ele>1165</ele>
        <time>2026-01-11T10:27:41.000Z</time>
      </trkpt>
      <trkpt lat="43.00062" lon="0.1584">
        <ele>1167</ele>
        <time>2026-01-11T10:27:54.000Z</time>
      </trkpt>
      <trkpt lat="43.00047" lon="0.1584">
        <ele>1168</ele>
        <time>2026-01-11T10:28:12.000Z</time>
      </trkpt>
      <trkpt lat="43.00032" lon="0.15842">
        <ele>1170</ele>
        <time>2026-01-11T10:31:40.000Z</time>
      </trkpt>
      <trkpt lat="43.00019" lon="0.15848">
        <ele>1172</ele>
        <time>2026-01-11T10:32:00.000Z</time>
      </trkpt>
      <trkpt lat="43.00006" lon="0.15857">
        <ele>1174</ele>
        <time>2026-01-11T10:32:13.000Z</time>
      </trkpt>
      <trkpt lat="42.99995" lon="0.15869">
        <ele>1175</ele>
        <time>2026-01-11T10:32:38.000Z</time>
      </trkpt>
      <trkpt lat="42.99982" lon="0.15881">
        <ele>1178</ele>
        <time>2026-01-11T10:32:57.000Z</time>
      </trkpt>
      <trkpt lat="42.99967" lon="0.15884">
        <ele>1180</ele>
        <time>2026-01-11T10:33:19.000Z</time>
      </trkpt>
      <trkpt lat="42.99953" lon="0.15886">
        <ele>1182</ele>
        <time>2026-01-11T10:33:39.000Z</time>
      </trkpt>
      <trkpt lat="42.99939" lon="0.1589">
        <ele>1184</ele>
        <time>2026-01-11T10:34:04.000Z</time>
      </trkpt>
      <trkpt lat="42.99934" lon="0.15904">
        <ele>1185</ele>
        <time>2026-01-11T10:34:44.000Z</time>
      </trkpt>
      <trkpt lat="42.99926" lon="0.15898">
        <ele>1186</ele>
        <time>2026-01-11T10:35:25.000Z</time>
      </trkpt>
      <trkpt lat="42.99913" lon="0.159">
        <ele>1188</ele>
        <time>2026-01-11T10:36:06.000Z</time>
      </trkpt>
      <trkpt lat="42.99901" lon="0.15907">
        <ele>1189</ele>
        <time>2026-01-11T10:36:18.000Z</time>
      </trkpt>
      <trkpt lat="42.99889" lon="0.15919">
        <ele>1191</ele>
        <time>2026-01-11T10:36:39.000Z</time>
      </trkpt>
      <trkpt lat="42.99879" lon="0.15933">
        <ele>1192</ele>
        <time>2026-01-11T10:37:03.000Z</time>
      </trkpt>
      <trkpt lat="42.99869" lon="0.15947">
        <ele>1194</ele>
        <time>2026-01-11T10:38:21.000Z</time>
      </trkpt>
      <trkpt lat="42.99858" lon="0.15958">
        <ele>1196</ele>
        <time>2026-01-11T10:38:40.000Z</time>
      </trkpt>
      <trkpt lat="42.9985" lon="0.15972">
        <ele>1195</ele>
        <time>2026-01-11T10:39:04.000Z</time>
      </trkpt>
      <trkpt lat="42.99838" lon="0.15983">
        <ele>1197</ele>
        <time>2026-01-11T10:39:23.000Z</time>
      </trkpt>
      <trkpt lat="42.99826" lon="0.15991">
        <ele>1198</ele>
        <time>2026-01-11T10:39:50.000Z</time>
      </trkpt>
      <trkpt lat="42.99815" lon="0.16002">
        <ele>1198</ele>
        <time>2026-01-11T10:40:11.000Z</time>
      </trkpt>
      <trkpt lat="42.99802" lon="0.16009">
        <ele>1200</ele>
        <time>2026-01-11T10:40:32.000Z</time>
      </trkpt>
      <trkpt lat="42.9979" lon="0.16013">
        <ele>1202</ele>
        <time>2026-01-11T10:40:50.000Z</time>
      </trkpt>
      <trkpt lat="42.9978" lon="0.16026">
        <ele>1201</ele>
        <time>2026-01-11T10:41:26.000Z</time>
      </trkpt>
      <trkpt lat="42.99767" lon="0.16032">
        <ele>1205</ele>
        <time>2026-01-11T10:41:44.000Z</time>
      </trkpt>
      <trkpt lat="42.99753" lon="0.16041">
        <ele>1208</ele>
        <time>2026-01-11T10:42:14.000Z</time>
      </trkpt>
      <trkpt lat="42.99741" lon="0.16047">
        <ele>1209</ele>
        <time>2026-01-11T10:42:38.000Z</time>
      </trkpt>
      <trkpt lat="42.99728" lon="0.16059">
        <ele>1215</ele>
        <time>2026-01-11T10:43:02.000Z</time>
      </trkpt>
      <trkpt lat="42.99715" lon="0.16072">
        <ele>1218</ele>
        <time>2026-01-11T10:43:50.000Z</time>
      </trkpt>
      <trkpt lat="42.99706" lon="0.16084">
        <ele>1220</ele>
        <time>2026-01-11T10:44:02.000Z</time>
      </trkpt>
      <trkpt lat="42.99701" lon="0.16102">
        <ele>1219</ele>
        <time>2026-01-11T10:44:32.000Z</time>
      </trkpt>
      <trkpt lat="42.99691" lon="0.16116">
        <ele>1220</ele>
        <time>2026-01-11T10:44:53.000Z</time>
      </trkpt>
      <trkpt lat="42.99678" lon="0.16124">
        <ele>1230</ele>
        <time>2026-01-11T10:45:20.000Z</time>
      </trkpt>
      <trkpt lat="42.99669" lon="0.16139">
        <ele>1230</ele>
        <time>2026-01-11T10:45:44.000Z</time>
      </trkpt>
      <trkpt lat="42.99656" lon="0.1614">
        <ele>1236</ele>
        <time>2026-01-11T10:45:56.000Z</time>
      </trkpt>
      <trkpt lat="42.99644" lon="0.16144">
        <ele>1244</ele>
        <time>2026-01-11T10:46:11.000Z</time>
      </trkpt>
      <trkpt lat="42.99645" lon="0.16164">
        <ele>1237</ele>
        <time>2026-01-11T10:46:26.000Z</time>
      </trkpt>
      <trkpt lat="42.99641" lon="0.16183">
        <ele>1236</ele>
        <time>2026-01-11T10:46:47.000Z</time>
      </trkpt>
      <trkpt lat="42.99637" lon="0.16203">
        <ele>1235</ele>
        <time>2026-01-11T10:47:05.000Z</time>
      </trkpt>
      <trkpt lat="42.99635" lon="0.16222">
        <ele>1234</ele>
        <time>2026-01-11T10:47:26.000Z</time>
      </trkpt>
      <trkpt lat="42.99626" lon="0.16238">
        <ele>1237</ele>
        <time>2026-01-11T10:48:13.000Z</time>
      </trkpt>
      <trkpt lat="42.99614" lon="0.16251">
        <ele>1241</ele>
        <time>2026-01-11T10:48:49.000Z</time>
      </trkpt>
      <trkpt lat="42.99605" lon="0.16266">
        <ele>1246</ele>
        <time>2026-01-11T10:49:07.000Z</time>
      </trkpt>
      <trkpt lat="42.99601" lon="0.16284">
        <ele>1247</ele>
        <time>2026-01-11T10:49:25.000Z</time>
      </trkpt>
      <trkpt lat="42.99602" lon="0.16305">
        <ele>1245</ele>
        <time>2026-01-11T10:49:46.000Z</time>
      </trkpt>
      <trkpt lat="42.99597" lon="0.16324">
        <ele>1247</ele>
        <time>2026-01-11T10:50:07.000Z</time>
      </trkpt>
      <trkpt lat="42.9959" lon="0.16341">
        <ele>1249</ele>
        <time>2026-01-11T10:51:40.000Z</time>
      </trkpt>
      <trkpt lat="42.99587" lon="0.16359">
        <ele>1248</ele>
        <time>2026-01-11T10:52:01.000Z</time>
      </trkpt>
      <trkpt lat="42.99582" lon="0.16377">
        <ele>1249</ele>
        <time>2026-01-11T10:52:23.000Z</time>
      </trkpt>
      <trkpt lat="42.99579" lon="0.16396">
        <ele>1249</ele>
        <time>2026-01-11T10:53:03.000Z</time>
      </trkpt>
      <trkpt lat="42.99571" lon="0.1641">
        <ele>1253</ele>
        <time>2026-01-11T10:53:20.000Z</time>
      </trkpt>
      <trkpt lat="42.99561" lon="0.16424">
        <ele>1253</ele>
        <time>2026-01-11T10:53:43.000Z</time>
      </trkpt>
      <trkpt lat="42.99551" lon="0.16438">
        <ele>1255</ele>
        <time>2026-01-11T10:54:12.000Z</time>
      </trkpt>
      <trkpt lat="42.99542" lon="0.16453">
        <ele>1256</ele>
        <time>2026-01-11T10:54:38.000Z</time>
      </trkpt>
      <trkpt lat="42.99535" lon="0.16471">
        <ele>1257</ele>
        <time>2026-01-11T10:55:22.000Z</time>
      </trkpt>
      <trkpt lat="42.99524" lon="0.16481">
        <ele>1260</ele>
        <time>2026-01-11T10:55:43.000Z</time>
      </trkpt>
      <trkpt lat="42.99522" lon="0.16499">
        <ele>1262</ele>
        <time>2026-01-11T10:56:04.000Z</time>
      </trkpt>
      <trkpt lat="42.99523" lon="0.16517">
        <ele>1264</ele>
        <time>2026-01-11T10:56:25.000Z</time>
      </trkpt>
      <trkpt lat="42.99521" lon="0.16535">
        <ele>1265</ele>
        <time>2026-01-11T10:56:43.000Z</time>
      </trkpt>
      <trkpt lat="42.99519" lon="0.16555">
        <ele>1267</ele>
        <time>2026-01-11T10:57:01.000Z</time>
      </trkpt>
      <trkpt lat="42.99517" lon="0.16576">
        <ele>1269</ele>
        <time>2026-01-11T10:57:58.000Z</time>
      </trkpt>
      <trkpt lat="42.99515" lon="0.16594">
        <ele>1272</ele>
        <time>2026-01-11T10:58:13.000Z</time>
      </trkpt>
      <trkpt lat="42.99517" lon="0.16612">
        <ele>1271</ele>
        <time>2026-01-11T10:58:37.000Z</time>
      </trkpt>
      <trkpt lat="42.99517" lon="0.16631">
        <ele>1273</ele>
        <time>2026-01-11T10:58:48.000Z</time>
      </trkpt>
      <trkpt lat="42.99517" lon="0.16649">
        <ele>1274</ele>
        <time>2026-01-11T10:59:35.000Z</time>
      </trkpt>
      <trkpt lat="42.99521" lon="0.16666">
        <ele>1275</ele>
        <time>2026-01-11T11:00:01.000Z</time>
      </trkpt>
      <trkpt lat="42.99527" lon="0.16684">
        <ele>1275</ele>
        <time>2026-01-11T11:00:42.000Z</time>
      </trkpt>
      <trkpt lat="42.99534" lon="0.167">
        <ele>1274</ele>
        <time>2026-01-11T11:00:55.000Z</time>
      </trkpt>
      <trkpt lat="42.99543" lon="0.16715">
        <ele>1274</ele>
        <time>2026-01-11T11:01:09.000Z</time>
      </trkpt>
      <trkpt lat="42.99551" lon="0.1673">
        <ele>1273</ele>
        <time>2026-01-11T11:01:28.000Z</time>
      </trkpt>
      <trkpt lat="42.99562" lon="0.16743">
        <ele>1272</ele>
        <time>2026-01-11T11:01:58.000Z</time>
      </trkpt>
      <trkpt lat="42.99575" lon="0.16752">
        <ele>1271</ele>
        <time>2026-01-11T11:02:10.000Z</time>
      </trkpt>
      <trkpt lat="42.99587" lon="0.16763">
        <ele>1271</ele>
        <time>2026-01-11T11:02:25.000Z</time>
      </trkpt>
      <trkpt lat="42.996" lon="0.16773">
        <ele>1272</ele>
        <time>2026-01-11T11:02:42.000Z</time>
      </trkpt>
      <trkpt lat="42.99613" lon="0.16778">
        <ele>1275</ele>
        <time>2026-01-11T11:02:56.000Z</time>
      </trkpt>
      <trkpt lat="42.99627" lon="0.16782">
        <ele>1277</ele>
        <time>2026-01-11T11:03:14.000Z</time>
      </trkpt>
      <trkpt lat="42.99642" lon="0.16789">
        <ele>1279</ele>
        <time>2026-01-11T11:04:17.000Z</time>
      </trkpt>
      <trkpt lat="42.99655" lon="0.16796">
        <ele>1281</ele>
        <time>2026-01-11T11:04:31.000Z</time>
      </trkpt>
      <trkpt lat="42.99669" lon="0.16801">
        <ele>1282</ele>
        <time>2026-01-11T11:04:47.000Z</time>
      </trkpt>
      <trkpt lat="42.99682" lon="0.16808">
        <ele>1283</ele>
        <time>2026-01-11T11:05:02.000Z</time>
      </trkpt>
      <trkpt lat="42.99694" lon="0.16816">
        <ele>1285</ele>
        <time>2026-01-11T11:05:15.000Z</time>
      </trkpt>
      <trkpt lat="42.99706" lon="0.16824">
        <ele>1286</ele>
        <time>2026-01-11T11:05:46.000Z</time>
      </trkpt>
      <trkpt lat="42.9972" lon="0.16828">
        <ele>1286</ele>
        <time>2026-01-11T11:06:49.000Z</time>
      </trkpt>
      <trkpt lat="42.99733" lon="0.16832">
        <ele>1286</ele>
        <time>2026-01-11T11:07:02.000Z</time>
      </trkpt>
      <trkpt lat="42.99747" lon="0.16834">
        <ele>1286</ele>
        <time>2026-01-11T11:07:17.000Z</time>
      </trkpt>
      <trkpt lat="42.9976" lon="0.16836">
        <ele>1287</ele>
        <time>2026-01-11T11:07:35.000Z</time>
      </trkpt>
      <trkpt lat="42.99773" lon="0.1683">
        <ele>1288</ele>
        <time>2026-01-11T11:07:51.000Z</time>
      </trkpt>
      <trkpt lat="42.99783" lon="0.16817">
        <ele>1288</ele>
        <time>2026-01-11T11:09:22.000Z</time>
      </trkpt>
      <trkpt lat="42.99783" lon="0.16804">
        <ele>1288</ele>
        <time>2026-01-11T11:09:38.000Z</time>
      </trkpt>
      <trkpt lat="42.99781" lon="0.16814">
        <ele>1288</ele>
        <time>2026-01-11T11:27:19.000Z</time>
      </trkpt>
      <trkpt lat="42.99784" lon="0.16806">
        <ele>1288</ele>
        <time>2026-01-11T11:30:58.000Z</time>
      </trkpt>
      <trkpt lat="42.99781" lon="0.16813">
        <ele>1288</ele>
        <time>2026-01-11T11:37:49.000Z</time>
      </trkpt>
      <trkpt lat="42.99783" lon="0.16801">
        <ele>1287</ele>
        <time>2026-01-11T11:46:05.000Z</time>
      </trkpt>
      <trkpt lat="42.99784" lon="0.16811">
        <ele>1288</ele>
        <time>2026-01-11T11:50:28.000Z</time>
      </trkpt>
      <trkpt lat="42.99795" lon="0.16812">
        <ele>1286</ele>
        <time>2026-01-11T11:51:51.000Z</time>
      </trkpt>
      <trkpt lat="42.99809" lon="0.16811">
        <ele>1283</ele>
        <time>2026-01-11T11:52:08.000Z</time>
      </trkpt>
      <trkpt lat="42.99824" lon="0.1681">
        <ele>1279</ele>
        <time>2026-01-11T11:52:24.000Z</time>
      </trkpt>
      <trkpt lat="42.99837" lon="0.16804">
        <ele>1276</ele>
        <time>2026-01-11T11:53:13.000Z</time>
      </trkpt>
      <trkpt lat="42.9985" lon="0.16804">
        <ele>1273</ele>
        <time>2026-01-11T11:53:28.000Z</time>
      </trkpt>
      <trkpt lat="42.99864" lon="0.16807">
        <ele>1269</ele>
        <time>2026-01-11T11:54:15.000Z</time>
      </trkpt>
      <trkpt lat="42.99879" lon="0.16807">
        <ele>1265</ele>
        <time>2026-01-11T11:54:26.000Z</time>
      </trkpt>
      <trkpt lat="42.99893" lon="0.16807">
        <ele>1262</ele>
        <time>2026-01-11T11:54:41.000Z</time>
      </trkpt>
      <trkpt lat="42.99908" lon="0.16807">
        <ele>1258</ele>
        <time>2026-01-11T11:54:55.000Z</time>
      </trkpt>
      <trkpt lat="42.99922" lon="0.16807">
        <ele>1253</ele>
        <time>2026-01-11T11:55:12.000Z</time>
      </trkpt>
      <trkpt lat="42.99936" lon="0.16807">
        <ele>1249</ele>
        <time>2026-01-11T11:55:50.000Z</time>
      </trkpt>
      <trkpt lat="42.99949" lon="0.16809">
        <ele>1243</ele>
        <time>2026-01-11T11:56:07.000Z</time>
      </trkpt>
      <trkpt lat="42.99964" lon="0.16812">
        <ele>1239</ele>
        <time>2026-01-11T11:56:24.000Z</time>
      </trkpt>
      <trkpt lat="42.99978" lon="0.16817">
        <ele>1236</ele>
        <time>2026-01-11T11:56:49.000Z</time>
      </trkpt>
      <trkpt lat="42.9999" lon="0.16828">
        <ele>1234</ele>
        <time>2026-01-11T11:57:01.000Z</time>
      </trkpt>
      <trkpt lat="43.00002" lon="0.16838">
        <ele>1230</ele>
        <time>2026-01-11T11:57:13.000Z</time>
      </trkpt>
      <trkpt lat="43.00016" lon="0.16839">
        <ele>1225</ele>
        <time>2026-01-11T11:57:30.000Z</time>
      </trkpt>
      <trkpt lat="43.00031" lon="0.16837">
        <ele>1219</ele>
        <time>2026-01-11T11:58:05.000Z</time>
      </trkpt>
      <trkpt lat="43.00045" lon="0.1684">
        <ele>1214</ele>
        <time>2026-01-11T11:58:14.000Z</time>
      </trkpt>
      <trkpt lat="43.00059" lon="0.16848">
        <ele>1211</ele>
        <time>2026-01-11T11:58:30.000Z</time>
      </trkpt>
      <trkpt lat="43.00069" lon="0.16859">
        <ele>1207</ele>
        <time>2026-01-11T11:58:44.000Z</time>
      </trkpt>
      <trkpt lat="43.00079" lon="0.16874">
        <ele>1204</ele>
        <time>2026-01-11T11:59:17.000Z</time>
      </trkpt>
      <trkpt lat="43.00088" lon="0.16888">
        <ele>1200</ele>
        <time>2026-01-11T11:59:27.000Z</time>
      </trkpt>
      <trkpt lat="43.00098" lon="0.16901">
        <ele>1197</ele>
        <time>2026-01-11T11:59:43.000Z</time>
      </trkpt>
      <trkpt lat="43.00111" lon="0.16906">
        <ele>1193</ele>
        <time>2026-01-11T12:00:03.000Z</time>
      </trkpt>
      <trkpt lat="43.00124" lon="0.16912">
        <ele>1188</ele>
        <time>2026-01-11T12:00:16.000Z</time>
      </trkpt>
      <trkpt lat="43.00138" lon="0.16916">
        <ele>1186</ele>
        <time>2026-01-11T12:00:32.000Z</time>
      </trkpt>
      <trkpt lat="43.00151" lon="0.16916">
        <ele>1183</ele>
        <time>2026-01-11T12:00:44.000Z</time>
      </trkpt>
      <trkpt lat="43.00165" lon="0.16913">
        <ele>1180</ele>
        <time>2026-01-11T12:01:00.000Z</time>
      </trkpt>
      <trkpt lat="43.00178" lon="0.16913">
        <ele>1178</ele>
        <time>2026-01-11T12:02:35.000Z</time>
      </trkpt>
      <trkpt lat="43.00192" lon="0.1691">
        <ele>1174</ele>
        <time>2026-01-11T12:02:47.000Z</time>
      </trkpt>
      <trkpt lat="43.00207" lon="0.16908">
        <ele>1170</ele>
        <time>2026-01-11T12:03:00.000Z</time>
      </trkpt>
      <trkpt lat="43.00222" lon="0.16906">
        <ele>1167</ele>
        <time>2026-01-11T12:03:11.000Z</time>
      </trkpt>
      <trkpt lat="43.00236" lon="0.16903">
        <ele>1164</ele>
        <time>2026-01-11T12:03:25.000Z</time>
      </trkpt>
      <trkpt lat="43.00252" lon="0.16902">
        <ele>1161</ele>
        <time>2026-01-11T12:03:39.000Z</time>
      </trkpt>
      <trkpt lat="43.00266" lon="0.16904">
        <ele>1159</ele>
        <time>2026-01-11T12:03:51.000Z</time>
      </trkpt>
      <trkpt lat="43.00281" lon="0.16904">
        <ele>1155</ele>
        <time>2026-01-11T12:04:09.000Z</time>
      </trkpt>
      <trkpt lat="43.00294" lon="0.16901">
        <ele>1151</ele>
        <time>2026-01-11T12:04:22.000Z</time>
      </trkpt>
      <trkpt lat="43.00308" lon="0.16897">
        <ele>1148</ele>
        <time>2026-01-11T12:04:35.000Z</time>
      </trkpt>
      <trkpt lat="43.00322" lon="0.16896">
        <ele>1145</ele>
        <time>2026-01-11T12:05:03.000Z</time>
      </trkpt>
      <trkpt lat="43.00336" lon="0.16895">
        <ele>1143</ele>
        <time>2026-01-11T12:05:16.000Z</time>
      </trkpt>
      <trkpt lat="43.00347" lon="0.16886">
        <ele>1140</ele>
        <time>2026-01-11T12:05:30.000Z</time>
      </trkpt>
      <trkpt lat="43.00359" lon="0.16879">
        <ele>1137</ele>
        <time>2026-01-11T12:06:26.000Z</time>
      </trkpt>
      <trkpt lat="43.00373" lon="0.16874">
        <ele>1134</ele>
        <time>2026-01-11T12:06:48.000Z</time>
      </trkpt>
      <trkpt lat="43.00386" lon="0.16866">
        <ele>1131</ele>
        <time>2026-01-11T12:07:00.000Z</time>
      </trkpt>
      <trkpt lat="43.00401" lon="0.16859">
        <ele>1128</ele>
        <time>2026-01-11T12:07:13.000Z</time>
      </trkpt>
      <trkpt lat="43.00415" lon="0.16851">
        <ele>1124</ele>
        <time>2026-01-11T12:07:28.000Z</time>
      </trkpt>
      <trkpt lat="43.00429" lon="0.16844">
        <ele>1120</ele>
        <time>2026-01-11T12:07:44.000Z</time>
      </trkpt>
      <trkpt lat="43.00442" lon="0.16841">
        <ele>1118</ele>
        <time>2026-01-11T12:07:54.000Z</time>
      </trkpt>
      <trkpt lat="43.00456" lon="0.16838">
        <ele>1114</ele>
        <time>2026-01-11T12:08:08.000Z</time>
      </trkpt>
      <trkpt lat="43.0047" lon="0.16837">
        <ele>1111</ele>
        <time>2026-01-11T12:08:22.000Z</time>
      </trkpt>
      <trkpt lat="43.00484" lon="0.16836">
        <ele>1109</ele>
        <time>2026-01-11T12:08:34.000Z</time>
      </trkpt>
      <trkpt lat="43.00498" lon="0.16839">
        <ele>1105</ele>
        <time>2026-01-11T12:08:48.000Z</time>
      </trkpt>
      <trkpt lat="43.00512" lon="0.16838">
        <ele>1102</ele>
        <time>2026-01-11T12:09:02.000Z</time>
      </trkpt>
      <trkpt lat="43.00526" lon="0.16836">
        <ele>1098</ele>
        <time>2026-01-11T12:09:12.000Z</time>
      </trkpt>
      <trkpt lat="43.00541" lon="0.16835">
        <ele>1094</ele>
        <time>2026-01-11T12:09:28.000Z</time>
      </trkpt>
      <trkpt lat="43.00555" lon="0.16827">
        <ele>1090</ele>
        <time>2026-01-11T12:09:40.000Z</time>
      </trkpt>
      <trkpt lat="43.00566" lon="0.16817">
        <ele>1088</ele>
        <time>2026-01-11T12:09:50.000Z</time>
      </trkpt>
      <trkpt lat="43.00578" lon="0.16807">
        <ele>1086</ele>
        <time>2026-01-11T12:10:10.000Z</time>
      </trkpt>
      <trkpt lat="43.00591" lon="0.16796">
        <ele>1082</ele>
        <time>2026-01-11T12:10:40.000Z</time>
      </trkpt>
      <trkpt lat="43.006" lon="0.16782">
        <ele>1079</ele>
        <time>2026-01-11T12:10:50.000Z</time>
      </trkpt>
      <trkpt lat="43.006" lon="0.16763">
        <ele>1077</ele>
        <time>2026-01-11T12:11:04.000Z</time>
      </trkpt>
      <trkpt lat="43.00607" lon="0.16748">
        <ele>1073</ele>
        <time>2026-01-11T12:11:23.000Z</time>
      </trkpt>
      <trkpt lat="43.0062" lon="0.16743">
        <ele>1071</ele>
        <time>2026-01-11T12:11:35.000Z</time>
      </trkpt>
      <trkpt lat="43.00635" lon="0.16745">
        <ele>1069</ele>
        <time>2026-01-11T12:11:50.000Z</time>
      </trkpt>
      <trkpt lat="43.00649" lon="0.16748">
        <ele>1066</ele>
        <time>2026-01-11T12:12:03.000Z</time>
      </trkpt>
      <trkpt lat="43.00662" lon="0.16742">
        <ele>1065</ele>
        <time>2026-01-11T12:12:17.000Z</time>
      </trkpt>
      <trkpt lat="43.00675" lon="0.16731">
        <ele>1062</ele>
        <time>2026-01-11T12:12:33.000Z</time>
      </trkpt>
      <trkpt lat="43.00687" lon="0.16719">
        <ele>1060</ele>
        <time>2026-01-11T12:14:22.000Z</time>
      </trkpt>
      <trkpt lat="43.007" lon="0.16715">
        <ele>1059</ele>
        <time>2026-01-11T12:14:31.000Z</time>
      </trkpt>
      <trkpt lat="43.00712" lon="0.16706">
        <ele>1056</ele>
        <time>2026-01-11T12:14:43.000Z</time>
      </trkpt>
      <trkpt lat="43.00724" lon="0.16701">
        <ele>1053</ele>
        <time>2026-01-11T12:14:58.000Z</time>
      </trkpt>
      <trkpt lat="43.00739" lon="0.16703">
        <ele>1052</ele>
        <time>2026-01-11T12:15:06.000Z</time>
      </trkpt>
      <trkpt lat="43.00752" lon="0.16706">
        <ele>1050</ele>
        <time>2026-01-11T12:15:39.000Z</time>
      </trkpt>
      <trkpt lat="43.00751" lon="0.16691">
        <ele>1048</ele>
        <time>2026-01-11T12:15:52.000Z</time>
      </trkpt>
      <trkpt lat="43.00744" lon="0.16677">
        <ele>1047</ele>
        <time>2026-01-11T12:16:05.000Z</time>
      </trkpt>
      <trkpt lat="43.00736" lon="0.16663">
        <ele>1045</ele>
        <time>2026-01-11T12:16:17.000Z</time>
      </trkpt>
      <trkpt lat="43.00726" lon="0.16651">
        <ele>1043</ele>
        <time>2026-01-11T12:16:30.000Z</time>
      </trkpt>
      <trkpt lat="43.00714" lon="0.16641">
        <ele>1042</ele>
        <time>2026-01-11T12:16:44.000Z</time>
      </trkpt>
      <trkpt lat="43.00701" lon="0.1663">
        <ele>1041</ele>
        <time>2026-01-11T12:16:59.000Z</time>
      </trkpt>
      <trkpt lat="43.00688" lon="0.16622">
        <ele>1039</ele>
        <time>2026-01-11T12:17:10.000Z</time>
      </trkpt>
      <trkpt lat="43.00676" lon="0.16619">
        <ele>1038</ele>
        <time>2026-01-11T12:17:25.000Z</time>
      </trkpt>
      <trkpt lat="43.00682" lon="0.16608">
        <ele>1036</ele>
        <time>2026-01-11T12:17:59.000Z</time>
      </trkpt>
      <trkpt lat="43.00695" lon="0.16604">
        <ele>1035</ele>
        <time>2026-01-11T12:18:18.000Z</time>
      </trkpt>
      <trkpt lat="43.00708" lon="0.16602">
        <ele>1033</ele>
        <time>2026-01-11T12:18:37.000Z</time>
      </trkpt>
      <trkpt lat="43.00722" lon="0.16601">
        <ele>1030</ele>
        <time>2026-01-11T12:18:50.000Z</time>
      </trkpt>
      <trkpt lat="43.00735" lon="0.16599">
        <ele>1027</ele>
        <time>2026-01-11T12:19:01.000Z</time>
      </trkpt>
      <trkpt lat="43.0075" lon="0.16603">
        <ele>1024</ele>
        <time>2026-01-11T12:19:14.000Z</time>
      </trkpt>
      <trkpt lat="43.00764" lon="0.16608">
        <ele>1023</ele>
        <time>2026-01-11T12:19:29.000Z</time>
      </trkpt>
      <trkpt lat="43.00776" lon="0.16614">
        <ele>1021</ele>
        <time>2026-01-11T12:19:41.000Z</time>
      </trkpt>
      <trkpt lat="43.0079" lon="0.16619">
        <ele>1019</ele>
        <time>2026-01-11T12:20:01.000Z</time>
      </trkpt>
      <trkpt lat="43.00803" lon="0.16623">
        <ele>1015</ele>
        <time>2026-01-11T12:20:12.000Z</time>
      </trkpt>
      <trkpt lat="43.00815" lon="0.16632">
        <ele>1015</ele>
        <time>2026-01-11T12:20:49.000Z</time>
      </trkpt>
      <trkpt lat="43.00828" lon="0.16638">
        <ele>1013</ele>
        <time>2026-01-11T12:21:08.000Z</time>
      </trkpt>
      <trkpt lat="43.00841" lon="0.16644">
        <ele>1011</ele>
        <time>2026-01-11T12:21:21.000Z</time>
      </trkpt>
      <trkpt lat="43.00855" lon="0.16646">
        <ele>1009</ele>
        <time>2026-01-11T12:21:30.000Z</time>
      </trkpt>
      <trkpt lat="43.00869" lon="0.16653">
        <ele>1007</ele>
        <time>2026-01-11T12:21:45.000Z</time>
      </trkpt>
      <trkpt lat="43.00882" lon="0.16659">
        <ele>1003</ele>
        <time>2026-01-11T12:21:59.000Z</time>
      </trkpt>
      <trkpt lat="43.00896" lon="0.16667">
        <ele>1002</ele>
        <time>2026-01-11T12:22:13.000Z</time>
      </trkpt>
      <trkpt lat="43.00909" lon="0.16673">
        <ele>1000</ele>
        <time>2026-01-11T12:22:21.000Z</time>
      </trkpt>
      <trkpt lat="43.00922" lon="0.16677">
        <ele>999</ele>
        <time>2026-01-11T12:22:33.000Z</time>
      </trkpt>
      <trkpt lat="43.00932" lon="0.16678">
        <ele>997</ele>
        <time>2026-01-11T12:22:47.000Z</time>
      </trkpt>
      <trkpt lat="43.00928" lon="0.16663">
        <ele>993</ele>
        <time>2026-01-11T12:23:13.000Z</time>
      </trkpt>
      <trkpt lat="43.00921" lon="0.16646">
        <ele>991</ele>
        <time>2026-01-11T12:23:28.000Z</time>
      </trkpt>
      <trkpt lat="43.0091" lon="0.16632">
        <ele>990</ele>
        <time>2026-01-11T12:23:40.000Z</time>
      </trkpt>
      <trkpt lat="43.00899" lon="0.16621">
        <ele>989</ele>
        <time>2026-01-11T12:23:55.000Z</time>
      </trkpt>
      <trkpt lat="43.00891" lon="0.16605">
        <ele>987</ele>
        <time>2026-01-11T12:24:10.000Z</time>
      </trkpt>
      <trkpt lat="43.00883" lon="0.16591">
        <ele>986</ele>
        <time>2026-01-11T12:24:24.000Z</time>
      </trkpt>
      <trkpt lat="43.00873" lon="0.16574">
        <ele>983</ele>
        <time>2026-01-11T12:24:38.000Z</time>
      </trkpt>
      <trkpt lat="43.00864" lon="0.1656">
        <ele>980</ele>
        <time>2026-01-11T12:24:50.000Z</time>
      </trkpt>
      <trkpt lat="43.00855" lon="0.16546">
        <ele>980</ele>
        <time>2026-01-11T12:25:06.000Z</time>
      </trkpt>
      <trkpt lat="43.00847" lon="0.1653">
        <ele>977</ele>
        <time>2026-01-11T12:25:18.000Z</time>
      </trkpt>
      <trkpt lat="43.00838" lon="0.16515">
        <ele>975</ele>
        <time>2026-01-11T12:25:31.000Z</time>
      </trkpt>
      <trkpt lat="43.00828" lon="0.16507">
        <ele>974</ele>
        <time>2026-01-11T12:25:51.000Z</time>
      </trkpt>
      <trkpt lat="43.00837" lon="0.16504">
        <ele>971</ele>
        <time>2026-01-11T12:27:28.000Z</time>
      </trkpt>
      <trkpt lat="43.0085" lon="0.1651">
        <ele>970</ele>
        <time>2026-01-11T12:27:52.000Z</time>
      </trkpt>
      <trkpt lat="43.00863" lon="0.16515">
        <ele>969</ele>
        <time>2026-01-11T12:28:07.000Z</time>
      </trkpt>
      <trkpt lat="43.00877" lon="0.16522">
        <ele>965</ele>
        <time>2026-01-11T12:28:20.000Z</time>
      </trkpt>
      <trkpt lat="43.00892" lon="0.16527">
        <ele>963</ele>
        <time>2026-01-11T12:28:33.000Z</time>
      </trkpt>
      <trkpt lat="43.00906" lon="0.1653">
        <ele>961</ele>
        <time>2026-01-11T12:28:44.000Z</time>
      </trkpt>
      <trkpt lat="43.00919" lon="0.16533">
        <ele>958</ele>
        <time>2026-01-11T12:28:59.000Z</time>
      </trkpt>
      <trkpt lat="43.00934" lon="0.16538">
        <ele>958</ele>
        <time>2026-01-11T12:29:10.000Z</time>
      </trkpt>
      <trkpt lat="43.00949" lon="0.16543">
        <ele>955</ele>
        <time>2026-01-11T12:29:28.000Z</time>
      </trkpt>
      <trkpt lat="43.00962" lon="0.16546">
        <ele>954</ele>
        <time>2026-01-11T12:29:41.000Z</time>
      </trkpt>
      <trkpt lat="43.00976" lon="0.16549">
        <ele>951</ele>
        <time>2026-01-11T12:29:55.000Z</time>
      </trkpt>
      <trkpt lat="43.00991" lon="0.16552">
        <ele>949</ele>
        <time>2026-01-11T12:30:11.000Z</time>
      </trkpt>
      <trkpt lat="43.01006" lon="0.16556">
        <ele>947</ele>
        <time>2026-01-11T12:30:23.000Z</time>
      </trkpt>
      <trkpt lat="43.0102" lon="0.16556">
        <ele>943</ele>
        <time>2026-01-11T12:30:34.000Z</time>
      </trkpt>
      <trkpt lat="43.01035" lon="0.16558">
        <ele>940</ele>
        <time>2026-01-11T12:30:50.000Z</time>
      </trkpt>
      <trkpt lat="43.01048" lon="0.16564">
        <ele>939</ele>
        <time>2026-01-11T12:31:17.000Z</time>
      </trkpt>
      <trkpt lat="43.01064" lon="0.16567">
        <ele>935</ele>
        <time>2026-01-11T12:32:18.000Z</time>
      </trkpt>
      <trkpt lat="43.0108" lon="0.16566">
        <ele>932</ele>
        <time>2026-01-11T12:32:33.000Z</time>
      </trkpt>
      <trkpt lat="43.01096" lon="0.16569">
        <ele>928</ele>
        <time>2026-01-11T12:32:46.000Z</time>
      </trkpt>
      <trkpt lat="43.01111" lon="0.16569">
        <ele>925</ele>
        <time>2026-01-11T12:33:00.000Z</time>
      </trkpt>
      <trkpt lat="43.01125" lon="0.16566">
        <ele>920</ele>
        <time>2026-01-11T12:33:12.000Z</time>
      </trkpt>
      <trkpt lat="43.01139" lon="0.16566">
        <ele>917</ele>
        <time>2026-01-11T12:33:25.000Z</time>
      </trkpt>
      <trkpt lat="43.01153" lon="0.16563">
        <ele>912</ele>
        <time>2026-01-11T12:33:35.000Z</time>
      </trkpt>
      <trkpt lat="43.01166" lon="0.16566">
        <ele>910</ele>
        <time>2026-01-11T12:33:48.000Z</time>
      </trkpt>
      <trkpt lat="43.01179" lon="0.16572">
        <ele>906</ele>
        <time>2026-01-11T12:34:04.000Z</time>
      </trkpt>
      <trkpt lat="43.01191" lon="0.16581">
        <ele>904</ele>
        <time>2026-01-11T12:34:15.000Z</time>
      </trkpt>
      <trkpt lat="43.012" lon="0.16594">
        <ele>901</ele>
        <time>2026-01-11T12:34:31.000Z</time>
      </trkpt>
      <trkpt lat="43.01204" lon="0.16612">
        <ele>900</ele>
        <time>2026-01-11T12:34:44.000Z</time>
      </trkpt>
      <trkpt lat="43.01205" lon="0.16631">
        <ele>899</ele>
        <time>2026-01-11T12:34:56.000Z</time>
      </trkpt>
      <trkpt lat="43.01211" lon="0.16646">
        <ele>896</ele>
        <time>2026-01-11T12:35:06.000Z</time>
      </trkpt>
      <trkpt lat="43.01216" lon="0.16663">
        <ele>894</ele>
        <time>2026-01-11T12:35:22.000Z</time>
      </trkpt>
      <trkpt lat="43.01215" lon="0.16678">
        <ele>894</ele>
        <time>2026-01-11T12:35:44.000Z</time>
      </trkpt>
      <trkpt lat="43.01223" lon="0.16667">
        <ele>889</ele>
        <time>2026-01-11T12:36:11.000Z</time>
      </trkpt>
      <trkpt lat="43.01229" lon="0.1665">
        <ele>883</ele>
        <time>2026-01-11T12:36:28.000Z</time>
      </trkpt>
      <trkpt lat="43.01232" lon="0.16632">
        <ele>883</ele>
        <time>2026-01-11T12:36:42.000Z</time>
      </trkpt>
      <trkpt lat="43.01239" lon="0.16615">
        <ele>882</ele>
        <time>2026-01-11T12:36:58.000Z</time>
      </trkpt>
      <trkpt lat="43.01245" lon="0.16598">
        <ele>880</ele>
        <time>2026-01-11T12:37:10.000Z</time>
      </trkpt>
      <trkpt lat="43.01251" lon="0.16579">
        <ele>878</ele>
        <time>2026-01-11T12:37:22.000Z</time>
      </trkpt>
      <trkpt lat="43.01256" lon="0.16561">
        <ele>877</ele>
        <time>2026-01-11T12:37:34.000Z</time>
      </trkpt>
      <trkpt lat="43.01262" lon="0.16544">
        <ele>876</ele>
        <time>2026-01-11T12:37:46.000Z</time>
      </trkpt>
      <trkpt lat="43.01267" lon="0.16527">
        <ele>874</ele>
        <time>2026-01-11T12:38:01.000Z</time>
      </trkpt>
      <trkpt lat="43.01271" lon="0.1651">
        <ele>872</ele>
        <time>2026-01-11T12:38:13.000Z</time>
      </trkpt>
      <trkpt lat="43.01275" lon="0.16493">
        <ele>871</ele>
        <time>2026-01-11T12:38:25.000Z</time>
      </trkpt>
      <trkpt lat="43.01281" lon="0.16477">
        <ele>869</ele>
        <time>2026-01-11T12:38:37.000Z</time>
      </trkpt>
      <trkpt lat="43.0129" lon="0.16463">
        <ele>865</ele>
        <time>2026-01-11T12:38:51.000Z</time>
      </trkpt>
      <trkpt lat="43.01299" lon="0.1645">
        <ele>863</ele>
        <time>2026-01-11T12:39:17.000Z</time>
      </trkpt>
      <trkpt lat="43.01298" lon="0.16432">
        <ele>861</ele>
        <time>2026-01-11T12:39:30.000Z</time>
      </trkpt>
      <trkpt lat="43.01293" lon="0.16415">
        <ele>858</ele>
        <time>2026-01-11T12:43:11.000Z</time>
      </trkpt>
      <trkpt lat="43.0128" lon="0.16409">
        <ele>858</ele>
        <time>2026-01-11T12:43:22.000Z</time>
      </trkpt>
      <trkpt lat="43.01266" lon="0.16404">
        <ele>858</ele>
        <time>2026-01-11T12:43:35.000Z</time>
      </trkpt>
      <trkpt lat="43.01252" lon="0.16401">
        <ele>858</ele>
        <time>2026-01-11T12:43:48.000Z</time>
      </trkpt>
      <trkpt lat="43.0124" lon="0.16391">
        <ele>855</ele>
        <time>2026-01-11T12:43:59.000Z</time>
      </trkpt>
      <trkpt lat="43.01228" lon="0.1638">
        <ele>852</ele>
        <time>2026-01-11T12:44:11.000Z</time>
      </trkpt>
      <trkpt lat="43.01216" lon="0.1637">
        <ele>851</ele>
        <time>2026-01-11T12:44:24.000Z</time>
      </trkpt>
      <trkpt lat="43.01203" lon="0.1636">
        <ele>847</ele>
        <time>2026-01-11T12:44:35.000Z</time>
      </trkpt>
      <trkpt lat="43.01188" lon="0.16357">
        <ele>846</ele>
        <time>2026-01-11T12:44:46.000Z</time>
      </trkpt>
      <trkpt lat="43.01173" lon="0.16354">
        <ele>846</ele>
        <time>2026-01-11T12:44:55.000Z</time>
      </trkpt>
      <trkpt lat="43.01159" lon="0.16353">
        <ele>847</ele>
        <time>2026-01-11T12:45:09.000Z</time>
      </trkpt>
      <trkpt lat="43.01146" lon="0.1635">
        <ele>846</ele>
        <time>2026-01-11T12:45:21.000Z</time>
      </trkpt>
      <trkpt lat="43.01131" lon="0.16345">
        <ele>846</ele>
        <time>2026-01-11T12:45:32.000Z</time>
      </trkpt>
      <trkpt lat="43.01117" lon="0.1634">
        <ele>845</ele>
        <time>2026-01-11T12:45:44.000Z</time>
      </trkpt>
      <trkpt lat="43.01103" lon="0.16335">
        <ele>845</ele>
        <time>2026-01-11T12:45:57.000Z</time>
      </trkpt>
      <trkpt lat="43.01089" lon="0.1633">
        <ele>844</ele>
        <time>2026-01-11T12:46:09.000Z</time>
      </trkpt>
      <trkpt lat="43.01078" lon="0.1632">
        <ele>841</ele>
        <time>2026-01-11T12:46:20.000Z</time>
      </trkpt>
      <trkpt lat="43.01067" lon="0.16309">
        <ele>838</ele>
        <time>2026-01-11T12:46:32.000Z</time>
      </trkpt>
      <trkpt lat="43.01055" lon="0.163">
        <ele>837</ele>
        <time>2026-01-11T12:46:44.000Z</time>
      </trkpt>
      <trkpt lat="43.01044" lon="0.16288">
        <ele>837</ele>
        <time>2026-01-11T12:46:56.000Z</time>
      </trkpt>
      <trkpt lat="43.01031" lon="0.16279">
        <ele>837</ele>
        <time>2026-01-11T12:47:20.000Z</time>
      </trkpt>
      <trkpt lat="43.01018" lon="0.16269">
        <ele>837</ele>
        <time>2026-01-11T12:47:34.000Z</time>
      </trkpt>
      <trkpt lat="43.01009" lon="0.16255">
        <ele>833</ele>
        <time>2026-01-11T12:47:45.000Z</time>
      </trkpt>
      <trkpt lat="43.00998" lon="0.16244">
        <ele>830</ele>
        <time>2026-01-11T12:47:59.000Z</time>
      </trkpt>
      <trkpt lat="43.00986" lon="0.16232">
        <ele>829</ele>
        <time>2026-01-11T12:48:10.000Z</time>
      </trkpt>
      <trkpt lat="43.00975" lon="0.16219">
        <ele>827</ele>
        <time>2026-01-11T12:48:21.000Z</time>
      </trkpt>
      <trkpt lat="43.00966" lon="0.16205">
        <ele>824</ele>
        <time>2026-01-11T12:48:37.000Z</time>
      </trkpt>
      <trkpt lat="43.00955" lon="0.1619">
        <ele>822</ele>
        <time>2026-01-11T12:48:48.000Z</time>
      </trkpt>
      <trkpt lat="43.00944" lon="0.16178">
        <ele>821</ele>
        <time>2026-01-11T12:48:59.000Z</time>
      </trkpt>
      <trkpt lat="43.00931" lon="0.1617">
        <ele>821</ele>
        <time>2026-01-11T12:49:11.000Z</time>
      </trkpt>
      <trkpt lat="43.00918" lon="0.16159">
        <ele>816</ele>
        <time>2026-01-11T12:49:23.000Z</time>
      </trkpt>
      <trkpt lat="43.00906" lon="0.16152">
        <ele>815</ele>
        <time>2026-01-11T12:49:36.000Z</time>
      </trkpt>
      <trkpt lat="43.00893" lon="0.16147">
        <ele>816</ele>
        <time>2026-01-11T12:49:47.000Z</time>
      </trkpt>
      <trkpt lat="43.00879" lon="0.16145">
        <ele>818</ele>
        <time>2026-01-11T12:49:57.000Z</time>
      </trkpt>
      <trkpt lat="43.00867" lon="0.16145">
        <ele>822</ele>
        <time>2026-01-11T12:50:07.000Z</time>
      </trkpt>
      <trkpt lat="43.0087" lon="0.1613">
        <ele>820</ele>
        <time>2026-01-11T12:50:21.000Z</time>
      </trkpt>
      <trkpt lat="43.00879" lon="0.16116">
        <ele>815</ele>
        <time>2026-01-11T12:50:35.000Z</time>
      </trkpt>
      <trkpt lat="43.00891" lon="0.16107">
        <ele>813</ele>
        <time>2026-01-11T12:50:50.000Z</time>
      </trkpt>
      <trkpt lat="43.00904" lon="0.16106">
        <ele>809</ele>
        <time>2026-01-11T12:50:59.000Z</time>
      </trkpt>
      <trkpt lat="43.00915" lon="0.16094">
        <ele>808</ele>
        <time>2026-01-11T12:51:12.000Z</time>
      </trkpt>
      <trkpt lat="43.00926" lon="0.16082">
        <ele>809</ele>
        <time>2026-01-11T12:51:25.000Z</time>
      </trkpt>
      <trkpt lat="43.00939" lon="0.16074">
        <ele>809</ele>
        <time>2026-01-11T12:51:42.000Z</time>
      </trkpt>
      <trkpt lat="43.00953" lon="0.16067">
        <ele>809</ele>
        <time>2026-01-11T12:52:47.000Z</time>
      </trkpt>
      <trkpt lat="43.00967" lon="0.16067">
        <ele>804</ele>
        <time>2026-01-11T12:52:58.000Z</time>
      </trkpt>
      <trkpt lat="43.00981" lon="0.1606">
        <ele>804</ele>
        <time>2026-01-11T12:53:11.000Z</time>
      </trkpt>
      <trkpt lat="43.00994" lon="0.16052">
        <ele>803</ele>
        <time>2026-01-11T12:53:29.000Z</time>
      </trkpt>
      <trkpt lat="43.01009" lon="0.16047">
        <ele>804</ele>
        <time>2026-01-11T12:53:42.000Z</time>
      </trkpt>
      <trkpt lat="43.01024" lon="0.16048">
        <ele>801</ele>
        <time>2026-01-11T12:53:55.000Z</time>
      </trkpt>
      <trkpt lat="43.01038" lon="0.16046">
        <ele>801</ele>
        <time>2026-01-11T12:54:09.000Z</time>
      </trkpt>
      <trkpt lat="43.01052" lon="0.16049">
        <ele>797</ele>
        <time>2026-01-11T12:54:23.000Z</time>
      </trkpt>
      <trkpt lat="43.01067" lon="0.16053">
        <ele>793</ele>
        <time>2026-01-11T12:54:35.000Z</time>
      </trkpt>
      <trkpt lat="43.01081" lon="0.16047">
        <ele>792</ele>
        <time>2026-01-11T12:54:46.000Z</time>
      </trkpt>
      <trkpt lat="43.01095" lon="0.16042">
        <ele>793</ele>
        <time>2026-01-11T12:54:58.000Z</time>
      </trkpt>
      <trkpt lat="43.01108" lon="0.16045">
        <ele>789</ele>
        <time>2026-01-11T12:55:09.000Z</time>
      </trkpt>
      <trkpt lat="43.01122" lon="0.16044">
        <ele>786</ele>
        <time>2026-01-11T12:55:20.000Z</time>
      </trkpt>
      <trkpt lat="43.01133" lon="0.16038">
        <ele>787</ele>
        <time>2026-01-11T12:55:41.000Z</time>
      </trkpt>
      <trkpt lat="43.01142" lon="0.16043">
        <ele>782</ele>
        <time>2026-01-11T12:56:08.000Z</time>
      </trkpt>
      <trkpt lat="43.01146" lon="0.16027">
        <ele>786</ele>
        <time>2026-01-11T12:57:14.000Z</time>
      </trkpt>
      <trkpt lat="43.01149" lon="0.1601">
        <ele>792</ele>
        <time>2026-01-11T12:57:31.000Z</time>
      </trkpt>
      <trkpt lat="43.01163" lon="0.16007">
        <ele>789</ele>
        <time>2026-01-11T12:57:36.000Z</time>
      </trkpt>
      <trkpt lat="43.01173" lon="0.15995">
        <ele>788</ele>
        <time>2026-01-11T12:57:52.000Z</time>
      </trkpt>
      <trkpt lat="43.01181" lon="0.15979">
        <ele>794</ele>
        <time>2026-01-11T12:58:05.000Z</time>
      </trkpt>
      <trkpt lat="43.01194" lon="0.15968">
        <ele>791</ele>
        <time>2026-01-11T12:58:15.000Z</time>
      </trkpt>
      <trkpt lat="43.01206" lon="0.15959">
        <ele>790</ele>
        <time>2026-01-11T12:58:23.000Z</time>
      </trkpt>
      <trkpt lat="43.01217" lon="0.15949">
        <ele>791</ele>
        <time>2026-01-11T12:58:34.000Z</time>
      </trkpt>
      <trkpt lat="43.01231" lon="0.1594">
        <ele>785</ele>
        <time>2026-01-11T12:58:47.000Z</time>
      </trkpt>
      <trkpt lat="43.01244" lon="0.15937">
        <ele>783</ele>
        <time>2026-01-11T12:58:59.000Z</time>
      </trkpt>
      <trkpt lat="43.01256" lon="0.15927">
        <ele>781</ele>
        <time>2026-01-11T12:59:10.000Z</time>
      </trkpt>
      <trkpt lat="43.01266" lon="0.15915">
        <ele>779</ele>
        <time>2026-01-11T12:59:19.000Z</time>
      </trkpt>
      <trkpt lat="43.01276" lon="0.15901">
        <ele>782</ele>
        <time>2026-01-11T12:59:30.000Z</time>
      </trkpt>
      <trkpt lat="43.01286" lon="0.15888">
        <ele>780</ele>
        <time>2026-01-11T12:59:49.000Z</time>
      </trkpt>
      <trkpt lat="43.01299" lon="0.15881">
        <ele>778</ele>
        <time>2026-01-11T13:00:05.000Z</time>
      </trkpt>
      <trkpt lat="43.01311" lon="0.15872">
        <ele>773</ele>
        <time>2026-01-11T13:00:26.000Z</time>
      </trkpt>
      <trkpt lat="43.0132" lon="0.15858">
        <ele>772</ele>
        <time>2026-01-11T13:00:38.000Z</time>
      </trkpt>
      <trkpt lat="43.0133" lon="0.15847">
        <ele>771</ele>
        <time>2026-01-11T13:00:48.000Z</time>
      </trkpt>
      <trkpt lat="43.01344" lon="0.15837">
        <ele>766</ele>
        <time>2026-01-11T13:00:59.000Z</time>
      </trkpt>
      <trkpt lat="43.01354" lon="0.15824">
        <ele>765</ele>
        <time>2026-01-11T13:01:10.000Z</time>
      </trkpt>
      <trkpt lat="43.0136" lon="0.15807">
        <ele>762</ele>
        <time>2026-01-11T13:01:21.000Z</time>
      </trkpt>
      <trkpt lat="43.01364" lon="0.15789">
        <ele>763</ele>
        <time>2026-01-11T13:01:34.000Z</time>
      </trkpt>
      <trkpt lat="43.01373" lon="0.15772">
        <ele>760</ele>
        <time>2026-01-11T13:01:45.000Z</time>
      </trkpt>
      <trkpt lat="43.01375" lon="0.15754">
        <ele>758</ele>
        <time>2026-01-11T13:01:56.000Z</time>
      </trkpt>
      <trkpt lat="43.01373" lon="0.15736">
        <ele>757</ele>
        <time>2026-01-11T13:02:05.000Z</time>
      </trkpt>
      <trkpt lat="43.01364" lon="0.1572">
        <ele>758</ele>
        <time>2026-01-11T13:02:16.000Z</time>
      </trkpt>
      <trkpt lat="43.01357" lon="0.15702">
        <ele>758</ele>
        <time>2026-01-11T13:02:28.000Z</time>
      </trkpt>
      <trkpt lat="43.01349" lon="0.15686">
        <ele>759</ele>
        <time>2026-01-11T13:02:39.000Z</time>
      </trkpt>
      <trkpt lat="43.01341" lon="0.15672">
        <ele>760</ele>
        <time>2026-01-11T13:02:54.000Z</time>
      </trkpt>
      <trkpt lat="43.01335" lon="0.15653">
        <ele>759</ele>
        <time>2026-01-11T13:03:11.000Z</time>
      </trkpt>
      <trkpt lat="43.01337" lon="0.15632">
        <ele>752</ele>
        <time>2026-01-11T13:03:15.000Z</time>
      </trkpt>
      <trkpt lat="43.01334" lon="0.15613">
        <ele>750</ele>
        <time>2026-01-11T13:03:25.000Z</time>
      </trkpt>
      <trkpt lat="43.01329" lon="0.15592">
        <ele>748</ele>
        <time>2026-01-11T13:03:36.000Z</time>
      </trkpt>
      <trkpt lat="43.01323" lon="0.15576">
        <ele>749</ele>
        <time>2026-01-11T13:03:49.000Z</time>
      </trkpt>
      <trkpt lat="43.01323" lon="0.15555">
        <ele>742</ele>
        <time>2026-01-11T13:03:58.000Z</time>
      </trkpt>
      <trkpt lat="43.01326" lon="0.15536">
        <ele>737</ele>
        <time>2026-01-11T13:04:13.000Z</time>
      </trkpt>
      <trkpt lat="43.01328" lon="0.15517">
        <ele>732</ele>
        <time>2026-01-11T13:04:32.000Z</time>
      </trkpt>
      <trkpt lat="43.01318" lon="0.15509">
        <ele>736</ele>
        <time>2026-01-11T13:04:36.000Z</time>
      </trkpt>
      <trkpt lat="43.01313" lon="0.15492">
        <ele>735</ele>
        <time>2026-01-11T13:04:42.000Z</time>
      </trkpt>
      <trkpt lat="43.01308" lon="0.15473">
        <ele>734</ele>
        <time>2026-01-11T13:04:52.000Z</time>
      </trkpt>
      <trkpt lat="43.01302" lon="0.15455">
        <ele>735</ele>
        <time>2026-01-11T13:05:00.000Z</time>
      </trkpt>
      <trkpt lat="43.01297" lon="0.15438">
        <ele>735</ele>
        <time>2026-01-11T13:05:13.000Z</time>
      </trkpt>
      <trkpt lat="43.01292" lon="0.15422">
        <ele>735</ele>
        <time>2026-01-11T13:05:24.000Z</time>
      </trkpt>
      <trkpt lat="43.01292" lon="0.15403">
        <ele>732</ele>
        <time>2026-01-11T13:05:32.000Z</time>
      </trkpt>
      <trkpt lat="43.0129" lon="0.15386">
        <ele>730</ele>
        <time>2026-01-11T13:05:47.000Z</time>
      </trkpt>
      <trkpt lat="43.0128" lon="0.15373">
        <ele>732</ele>
        <time>2026-01-11T13:05:58.000Z</time>
      </trkpt>
      <trkpt lat="43.01273" lon="0.15357">
        <ele>732</ele>
        <time>2026-01-11T13:06:14.000Z</time>
      </trkpt>
      <trkpt lat="43.01265" lon="0.15342">
        <ele>735</ele>
        <time>2026-01-11T13:06:38.000Z</time>
      </trkpt>
      <trkpt lat="43.01257" lon="0.15325">
        <ele>736</ele>
        <time>2026-01-11T13:06:54.000Z</time>
      </trkpt>
      <trkpt lat="43.01254" lon="0.15306">
        <ele>733</ele>
        <time>2026-01-11T13:07:01.000Z</time>
      </trkpt>
      <trkpt lat="43.01249" lon="0.15284">
        <ele>732</ele>
        <time>2026-01-11T13:07:10.000Z</time>
      </trkpt>
      <trkpt lat="43.01243" lon="0.15254">
        <ele>730</ele>
        <time>2026-01-11T13:07:18.000Z</time>
      </trkpt>
      <trkpt lat="43.01241" lon="0.15232">
        <ele>728</ele>
        <time>2026-01-11T13:07:27.000Z</time>
      </trkpt>
      <trkpt lat="43.01241" lon="0.15211">
        <ele>724</ele>
        <time>2026-01-11T13:07:35.000Z</time>
      </trkpt>
      <trkpt lat="43.0124" lon="0.15193">
        <ele>721</ele>
        <time>2026-01-11T13:07:43.000Z</time>
      </trkpt>
    </trkseg>
  </trk>
</gpx>